<?xml version="1.0" encoding="UTF-8" standalone="no" ?>
<gpx xmlns="http://www.topografix.com/GPX/1/1" xmlns:xsi="http://www.w3.org/2001/XMLSchema-instance" xsi:schemaLocation="http://www.topografix.com/GPX/1/1 http://www.topografix.com/GPX/1/1/gpx.xsd" version="1.1" creator="VisuGPX - https://www.visugpx.com">
  <metadata>
    <name>Biron Lacapelle Blanquefort 37km roulant</name>
  </metadata>
  <trk>
    <name><![CDATA[20181024145247-9neSP]]></name>
    <extensions>
      <line xmlns="http://www.topografix.com/GPX/gpx_style/0/2">
        <color>0000FF</color>
        <width>4</width>
      </line>
    </extensions>
    <trkseg>
      <trkpt lat="44.60029" lon="0.87193">
        <ele>161.64</ele>
        <time>2018-10-21T15:09:33Z</time>
      </trkpt>
      <trkpt lat="44.60024" lon="0.87135">
        <ele>162.6</ele>
        <time>2018-10-21T15:10:03Z</time>
      </trkpt>
      <trkpt lat="44.60021" lon="0.87105">
        <ele>163.56</ele>
        <time>2018-10-21T15:10:33Z</time>
      </trkpt>
      <trkpt lat="44.60018" lon="0.87108">
        <ele>163.56</ele>
        <time>2018-10-21T15:11:03Z</time>
      </trkpt>
      <trkpt lat="44.60019" lon="0.87104">
        <ele>163.56</ele>
        <time>2018-10-21T15:11:33Z</time>
      </trkpt>
      <trkpt lat="44.60053" lon="0.87097">
        <ele>168.37</ele>
        <time>2018-10-21T15:12:03Z</time>
      </trkpt>
      <trkpt lat="44.60098" lon="0.87085">
        <ele>173.66</ele>
        <time>2018-10-21T15:12:33Z</time>
      </trkpt>
      <trkpt lat="44.60148" lon="0.87061">
        <ele>176.54</ele>
        <time>2018-10-21T15:13:03Z</time>
      </trkpt>
      <trkpt lat="44.60201" lon="0.87028">
        <ele>177.5</ele>
        <time>2018-10-21T15:13:33Z</time>
      </trkpt>
      <trkpt lat="44.60284" lon="0.86982">
        <ele>184.23</ele>
        <time>2018-10-21T15:14:03Z</time>
      </trkpt>
      <trkpt lat="44.60317" lon="0.86891">
        <ele>180.38</ele>
        <time>2018-10-21T15:14:33Z</time>
      </trkpt>
      <trkpt lat="44.60336" lon="0.86751">
        <ele>168.37</ele>
        <time>2018-10-21T15:15:03Z</time>
      </trkpt>
      <trkpt lat="44.60306" lon="0.8674">
        <ele>167.89</ele>
        <time>2018-10-21T15:15:33Z</time>
      </trkpt>
      <trkpt lat="44.60323" lon="0.86669">
        <ele>176.06</ele>
        <time>2018-10-21T15:16:03Z</time>
      </trkpt>
      <trkpt lat="44.60308" lon="0.86537">
        <ele>170.29</ele>
        <time>2018-10-21T15:16:33Z</time>
      </trkpt>
      <trkpt lat="44.60255" lon="0.86466">
        <ele>172.21</ele>
        <time>2018-10-21T15:17:03Z</time>
      </trkpt>
      <trkpt lat="44.6029" lon="0.86381">
        <ele>172.21</ele>
        <time>2018-10-21T15:17:33Z</time>
      </trkpt>
      <trkpt lat="44.60299" lon="0.86341">
        <ele>173.66</ele>
        <time>2018-10-21T15:18:03Z</time>
      </trkpt>
      <trkpt lat="44.60283" lon="0.86278">
        <ele>180.87</ele>
        <time>2018-10-21T15:18:33Z</time>
      </trkpt>
      <trkpt lat="44.60261" lon="0.86222">
        <ele>185.67</ele>
        <time>2018-10-21T15:19:03Z</time>
      </trkpt>
      <trkpt lat="44.60224" lon="0.86176">
        <ele>187.59</ele>
        <time>2018-10-21T15:19:33Z</time>
      </trkpt>
      <trkpt lat="44.6017" lon="0.86132">
        <ele>189.52</ele>
        <time>2018-10-21T15:20:03Z</time>
      </trkpt>
      <trkpt lat="44.60102" lon="0.8616">
        <ele>192.88</ele>
        <time>2018-10-21T15:20:33Z</time>
      </trkpt>
      <trkpt lat="44.60053" lon="0.86179">
        <ele>194.32</ele>
        <time>2018-10-21T15:21:03Z</time>
      </trkpt>
      <trkpt lat="44.59994" lon="0.86171">
        <ele>193.36</ele>
        <time>2018-10-21T15:21:33Z</time>
      </trkpt>
      <trkpt lat="44.59932" lon="0.86184">
        <ele>192.4</ele>
        <time>2018-10-21T15:22:03Z</time>
      </trkpt>
      <trkpt lat="44.59908" lon="0.86183">
        <ele>191.44</ele>
        <time>2018-10-21T15:22:33Z</time>
      </trkpt>
      <trkpt lat="44.59904" lon="0.86186">
        <ele>191.92</ele>
        <time>2018-10-21T15:23:03Z</time>
      </trkpt>
      <trkpt lat="44.59888" lon="0.86164">
        <ele>190.96</ele>
        <time>2018-10-21T15:23:33Z</time>
      </trkpt>
      <trkpt lat="44.59874" lon="0.86088">
        <ele>188.56</ele>
        <time>2018-10-21T15:24:03Z</time>
      </trkpt>
      <trkpt lat="44.59862" lon="0.85989">
        <ele>187.59</ele>
        <time>2018-10-21T15:24:33Z</time>
      </trkpt>
      <trkpt lat="44.59838" lon="0.85908">
        <ele>187.11</ele>
        <time>2018-10-21T15:25:03Z</time>
      </trkpt>
      <trkpt lat="44.59838" lon="0.85806">
        <ele>189.52</ele>
        <time>2018-10-21T15:25:33Z</time>
      </trkpt>
      <trkpt lat="44.59827" lon="0.85776">
        <ele>190.48</ele>
        <time>2018-10-21T15:26:03Z</time>
      </trkpt>
      <trkpt lat="44.59822" lon="0.8577">
        <ele>189.52</ele>
        <time>2018-10-21T15:26:33Z</time>
      </trkpt>
      <trkpt lat="44.59819" lon="0.85775">
        <ele>190.96</ele>
        <time>2018-10-21T15:27:03Z</time>
      </trkpt>
      <trkpt lat="44.59819" lon="0.85773">
        <ele>190</ele>
        <time>2018-10-21T15:27:33Z</time>
      </trkpt>
      <trkpt lat="44.59824" lon="0.85764">
        <ele>190.96</ele>
        <time>2018-10-21T15:28:03Z</time>
      </trkpt>
      <trkpt lat="44.59819" lon="0.85772">
        <ele>191.44</ele>
        <time>2018-10-21T15:28:33Z</time>
      </trkpt>
      <trkpt lat="44.59813" lon="0.85774">
        <ele>190.96</ele>
        <time>2018-10-21T15:29:03Z</time>
      </trkpt>
      <trkpt lat="44.59821" lon="0.85773">
        <ele>190.96</ele>
        <time>2018-10-21T15:29:33Z</time>
      </trkpt>
      <trkpt lat="44.59835" lon="0.8574">
        <ele>193.36</ele>
        <time>2018-10-21T15:30:03Z</time>
      </trkpt>
      <trkpt lat="44.59855" lon="0.85643">
        <ele>197.21</ele>
        <time>2018-10-21T15:30:33Z</time>
      </trkpt>
      <trkpt lat="44.5989" lon="0.85527">
        <ele>194.8</ele>
        <time>2018-10-21T15:31:03Z</time>
      </trkpt>
      <trkpt lat="44.59962" lon="0.8537">
        <ele>189.52</ele>
        <time>2018-10-21T15:31:33Z</time>
      </trkpt>
      <trkpt lat="44.60033" lon="0.85173">
        <ele>188.08</ele>
        <time>2018-10-21T15:32:03Z</time>
      </trkpt>
      <trkpt lat="44.60073" lon="0.84963">
        <ele>184.23</ele>
        <time>2018-10-21T15:32:33Z</time>
      </trkpt>
      <trkpt lat="44.60098" lon="0.8469">
        <ele>172.21</ele>
        <time>2018-10-21T15:33:03Z</time>
      </trkpt>
      <trkpt lat="44.60123" lon="0.84389">
        <ele>150.58</ele>
        <time>2018-10-21T15:33:33Z</time>
      </trkpt>
      <trkpt lat="44.60137" lon="0.84164">
        <ele>134.24</ele>
        <time>2018-10-21T15:34:03Z</time>
      </trkpt>
      <trkpt lat="44.60151" lon="0.84144">
        <ele>135.2</ele>
        <time>2018-10-21T15:34:33Z</time>
      </trkpt>
      <trkpt lat="44.60178" lon="0.84098">
        <ele>141.45</ele>
        <time>2018-10-21T15:35:03Z</time>
      </trkpt>
      <trkpt lat="44.60212" lon="0.84074">
        <ele>148.66</ele>
        <time>2018-10-21T15:35:33Z</time>
      </trkpt>
      <trkpt lat="44.60248" lon="0.84096">
        <ele>153.95</ele>
        <time>2018-10-21T15:36:03Z</time>
      </trkpt>
      <trkpt lat="44.60286" lon="0.84102">
        <ele>156.35</ele>
        <time>2018-10-21T15:36:33Z</time>
      </trkpt>
      <trkpt lat="44.6032" lon="0.84092">
        <ele>157.79</ele>
        <time>2018-10-21T15:37:03Z</time>
      </trkpt>
      <trkpt lat="44.6037" lon="0.84081">
        <ele>157.31</ele>
        <time>2018-10-21T15:37:33Z</time>
      </trkpt>
      <trkpt lat="44.6045" lon="0.84061">
        <ele>158.27</ele>
        <time>2018-10-21T15:38:03Z</time>
      </trkpt>
      <trkpt lat="44.60502" lon="0.84073">
        <ele>159.24</ele>
        <time>2018-10-21T15:38:33Z</time>
      </trkpt>
      <trkpt lat="44.60639" lon="0.84198">
        <ele>160.2</ele>
        <time>2018-10-21T15:39:03Z</time>
      </trkpt>
      <trkpt lat="44.60707" lon="0.84249">
        <ele>165</ele>
        <time>2018-10-21T15:39:33Z</time>
      </trkpt>
      <trkpt lat="44.60771" lon="0.8427">
        <ele>169.81</ele>
        <time>2018-10-21T15:40:03Z</time>
      </trkpt>
      <trkpt lat="44.60827" lon="0.84285">
        <ele>171.73</ele>
        <time>2018-10-21T15:40:33Z</time>
      </trkpt>
      <trkpt lat="44.60957" lon="0.84289">
        <ele>165</ele>
        <time>2018-10-21T15:41:03Z</time>
      </trkpt>
      <trkpt lat="44.61169" lon="0.84245">
        <ele>152.51</ele>
        <time>2018-10-21T15:41:33Z</time>
      </trkpt>
      <trkpt lat="44.61175" lon="0.84245">
        <ele>142.41</ele>
        <time>2018-10-21T09:11:03Z</time>
      </trkpt>
      <trkpt lat="44.61179" lon="0.8425">
        <ele>142.89</ele>
        <time>2018-10-21T09:11:33Z</time>
      </trkpt>
      <trkpt lat="44.61182" lon="0.84249">
        <ele>143.37</ele>
        <time>2018-10-21T09:12:03Z</time>
      </trkpt>
      <trkpt lat="44.61196" lon="0.84244">
        <ele>142.41</ele>
        <time>2018-10-21T09:12:33Z</time>
      </trkpt>
      <trkpt lat="44.61292" lon="0.84258">
        <ele>139.53</ele>
        <time>2018-10-21T09:13:03Z</time>
      </trkpt>
      <trkpt lat="44.61359" lon="0.8434">
        <ele>144.82</ele>
        <time>2018-10-21T09:13:33Z</time>
      </trkpt>
      <trkpt lat="44.61422" lon="0.84401">
        <ele>145.3</ele>
        <time>2018-10-21T09:14:03Z</time>
      </trkpt>
      <trkpt lat="44.61501" lon="0.84458">
        <ele>149.62</ele>
        <time>2018-10-21T09:14:33Z</time>
      </trkpt>
      <trkpt lat="44.6157" lon="0.84517">
        <ele>149.14</ele>
        <time>2018-10-21T09:15:03Z</time>
      </trkpt>
      <trkpt lat="44.61685" lon="0.84526">
        <ele>141.93</ele>
        <time>2018-10-21T09:15:33Z</time>
      </trkpt>
      <trkpt lat="44.6178" lon="0.84409">
        <ele>136.16</ele>
        <time>2018-10-21T09:16:03Z</time>
      </trkpt>
      <trkpt lat="44.61882" lon="0.84302">
        <ele>132.8</ele>
        <time>2018-10-21T09:16:33Z</time>
      </trkpt>
      <trkpt lat="44.6197" lon="0.8425">
        <ele>133.76</ele>
        <time>2018-10-21T09:17:03Z</time>
      </trkpt>
      <trkpt lat="44.62092" lon="0.84307">
        <ele>130.4</ele>
        <time>2018-10-21T09:17:33Z</time>
      </trkpt>
      <trkpt lat="44.622" lon="0.84354">
        <ele>139.05</ele>
        <time>2018-10-21T09:18:03Z</time>
      </trkpt>
      <trkpt lat="44.62272" lon="0.84377">
        <ele>145.78</ele>
        <time>2018-10-21T09:18:33Z</time>
      </trkpt>
      <trkpt lat="44.62312" lon="0.84403">
        <ele>146.74</ele>
        <time>2018-10-21T09:19:03Z</time>
      </trkpt>
      <trkpt lat="44.62315" lon="0.8444">
        <ele>148.66</ele>
        <time>2018-10-21T09:19:33Z</time>
      </trkpt>
      <trkpt lat="44.62294" lon="0.84514">
        <ele>153.95</ele>
        <time>2018-10-21T09:20:03Z</time>
      </trkpt>
      <trkpt lat="44.62295" lon="0.84605">
        <ele>155.87</ele>
        <time>2018-10-21T09:20:33Z</time>
      </trkpt>
      <trkpt lat="44.62322" lon="0.8469">
        <ele>158.27</ele>
        <time>2018-10-21T09:21:03Z</time>
      </trkpt>
      <trkpt lat="44.62347" lon="0.84784">
        <ele>162.12</ele>
        <time>2018-10-21T09:21:33Z</time>
      </trkpt>
      <trkpt lat="44.62377" lon="0.84875">
        <ele>166.45</ele>
        <time>2018-10-21T09:22:03Z</time>
      </trkpt>
      <trkpt lat="44.62406" lon="0.8496">
        <ele>170.77</ele>
        <time>2018-10-21T09:22:33Z</time>
      </trkpt>
      <trkpt lat="44.62459" lon="0.85024">
        <ele>171.25</ele>
        <time>2018-10-21T09:23:03Z</time>
      </trkpt>
      <trkpt lat="44.62542" lon="0.85046">
        <ele>174.62</ele>
        <time>2018-10-21T09:23:33Z</time>
      </trkpt>
      <trkpt lat="44.62619" lon="0.85081">
        <ele>175.58</ele>
        <time>2018-10-21T09:24:03Z</time>
      </trkpt>
      <trkpt lat="44.62697" lon="0.85107">
        <ele>180.38</ele>
        <time>2018-10-21T09:24:33Z</time>
      </trkpt>
      <trkpt lat="44.62773" lon="0.8513">
        <ele>183.75</ele>
        <time>2018-10-21T09:25:03Z</time>
      </trkpt>
      <trkpt lat="44.62863" lon="0.85169">
        <ele>185.19</ele>
        <time>2018-10-21T09:25:33Z</time>
      </trkpt>
      <trkpt lat="44.62949" lon="0.85207">
        <ele>190</ele>
        <time>2018-10-21T09:26:03Z</time>
      </trkpt>
      <trkpt lat="44.6305" lon="0.85247">
        <ele>189.04</ele>
        <time>2018-10-21T09:26:33Z</time>
      </trkpt>
      <trkpt lat="44.63129" lon="0.8532">
        <ele>190.48</ele>
        <time>2018-10-21T09:27:03Z</time>
      </trkpt>
      <trkpt lat="44.63211" lon="0.85401">
        <ele>194.32</ele>
        <time>2018-10-21T09:27:33Z</time>
      </trkpt>
      <trkpt lat="44.63282" lon="0.8544">
        <ele>202.01</ele>
        <time>2018-10-21T09:28:03Z</time>
      </trkpt>
      <trkpt lat="44.63351" lon="0.85479">
        <ele>201.53</ele>
        <time>2018-10-21T09:28:33Z</time>
      </trkpt>
      <trkpt lat="44.63446" lon="0.85534">
        <ele>196.73</ele>
        <time>2018-10-21T09:29:03Z</time>
      </trkpt>
      <trkpt lat="44.63447" lon="0.85536">
        <ele>196.73</ele>
        <time>2018-10-21T09:29:33Z</time>
      </trkpt>
      <trkpt lat="44.63448" lon="0.85544">
        <ele>196.25</ele>
        <time>2018-10-21T09:30:03Z</time>
      </trkpt>
      <trkpt lat="44.63436" lon="0.8556">
        <ele>196.73</ele>
        <time>2018-10-21T09:30:33Z</time>
      </trkpt>
      <trkpt lat="44.63417" lon="0.85588">
        <ele>197.69</ele>
        <time>2018-10-21T09:31:03Z</time>
      </trkpt>
      <trkpt lat="44.63403" lon="0.85661">
        <ele>200.09</ele>
        <time>2018-10-21T09:31:33Z</time>
      </trkpt>
      <trkpt lat="44.63434" lon="0.85706">
        <ele>199.61</ele>
        <time>2018-10-21T09:32:03Z</time>
      </trkpt>
      <trkpt lat="44.63435" lon="0.85704">
        <ele>199.61</ele>
        <time>2018-10-21T09:32:33Z</time>
      </trkpt>
      <trkpt lat="44.63438" lon="0.85703">
        <ele>199.61</ele>
        <time>2018-10-21T09:33:03Z</time>
      </trkpt>
      <trkpt lat="44.63437" lon="0.85703">
        <ele>199.61</ele>
        <time>2018-10-21T09:33:33Z</time>
      </trkpt>
      <trkpt lat="44.6345" lon="0.85744">
        <ele>196.25</ele>
        <time>2018-10-21T09:34:03Z</time>
      </trkpt>
      <trkpt lat="44.63461" lon="0.85783">
        <ele>192.4</ele>
        <time>2018-10-21T09:34:33Z</time>
      </trkpt>
      <trkpt lat="44.63463" lon="0.85805">
        <ele>191.44</ele>
        <time>2018-10-21T09:35:03Z</time>
      </trkpt>
      <trkpt lat="44.63516" lon="0.85845">
        <ele>186.63</ele>
        <time>2018-10-21T09:35:33Z</time>
      </trkpt>
      <trkpt lat="44.63551" lon="0.85933">
        <ele>186.15</ele>
        <time>2018-10-21T09:36:03Z</time>
      </trkpt>
      <trkpt lat="44.63556" lon="0.85948">
        <ele>186.15</ele>
        <time>2018-10-21T09:36:33Z</time>
      </trkpt>
      <trkpt lat="44.63553" lon="0.85972">
        <ele>187.11</ele>
        <time>2018-10-21T09:37:03Z</time>
      </trkpt>
      <trkpt lat="44.63565" lon="0.85984">
        <ele>187.59</ele>
        <time>2018-10-21T09:37:33Z</time>
      </trkpt>
      <trkpt lat="44.63571" lon="0.85992">
        <ele>188.56</ele>
        <time>2018-10-21T09:38:03Z</time>
      </trkpt>
      <trkpt lat="44.63578" lon="0.86058">
        <ele>193.84</ele>
        <time>2018-10-21T09:38:33Z</time>
      </trkpt>
      <trkpt lat="44.63563" lon="0.86116">
        <ele>197.69</ele>
        <time>2018-10-21T09:39:03Z</time>
      </trkpt>
      <trkpt lat="44.63552" lon="0.86164">
        <ele>200.09</ele>
        <time>2018-10-21T09:39:33Z</time>
      </trkpt>
      <trkpt lat="44.63537" lon="0.86184">
        <ele>201.53</ele>
        <time>2018-10-21T09:40:03Z</time>
      </trkpt>
      <trkpt lat="44.63531" lon="0.86223">
        <ele>202.49</ele>
        <time>2018-10-21T09:40:33Z</time>
      </trkpt>
      <trkpt lat="44.63487" lon="0.86288">
        <ele>205.38</ele>
        <time>2018-10-21T09:41:03Z</time>
      </trkpt>
      <trkpt lat="44.63451" lon="0.86346">
        <ele>205.86</ele>
        <time>2018-10-21T09:41:33Z</time>
      </trkpt>
      <trkpt lat="44.63413" lon="0.86415">
        <ele>206.34</ele>
        <time>2018-10-21T09:42:03Z</time>
      </trkpt>
      <trkpt lat="44.63388" lon="0.86495">
        <ele>206.82</ele>
        <time>2018-10-21T09:42:33Z</time>
      </trkpt>
      <trkpt lat="44.6342" lon="0.86531">
        <ele>204.9</ele>
        <time>2018-10-21T09:43:03Z</time>
      </trkpt>
      <trkpt lat="44.63421" lon="0.86524">
        <ele>205.38</ele>
        <time>2018-10-21T09:43:33Z</time>
      </trkpt>
      <trkpt lat="44.63423" lon="0.86526">
        <ele>206.34</ele>
        <time>2018-10-21T09:44:03Z</time>
      </trkpt>
      <trkpt lat="44.63433" lon="0.86536">
        <ele>205.38</ele>
        <time>2018-10-21T09:44:33Z</time>
      </trkpt>
      <trkpt lat="44.63358" lon="0.86615">
        <ele>195.77</ele>
        <time>2018-10-21T09:45:03Z</time>
      </trkpt>
      <trkpt lat="44.6326" lon="0.8666">
        <ele>185.19</ele>
        <time>2018-10-21T09:45:33Z</time>
      </trkpt>
      <trkpt lat="44.63252" lon="0.86661">
        <ele>184.71</ele>
        <time>2018-10-21T09:46:03Z</time>
      </trkpt>
      <trkpt lat="44.63249" lon="0.86666">
        <ele>184.71</ele>
        <time>2018-10-21T09:46:33Z</time>
      </trkpt>
      <trkpt lat="44.63237" lon="0.86695">
        <ele>186.15</ele>
        <time>2018-10-21T09:47:03Z</time>
      </trkpt>
      <trkpt lat="44.63235" lon="0.867">
        <ele>186.63</ele>
        <time>2018-10-21T09:47:33Z</time>
      </trkpt>
      <trkpt lat="44.63236" lon="0.86699">
        <ele>186.63</ele>
        <time>2018-10-21T09:48:03Z</time>
      </trkpt>
      <trkpt lat="44.63236" lon="0.86699">
        <ele>186.15</ele>
        <time>2018-10-21T09:48:33Z</time>
      </trkpt>
      <trkpt lat="44.63222" lon="0.8674">
        <ele>189.04</ele>
        <time>2018-10-21T09:49:03Z</time>
      </trkpt>
      <trkpt lat="44.6319" lon="0.86816">
        <ele>193.84</ele>
        <time>2018-10-21T09:49:33Z</time>
      </trkpt>
      <trkpt lat="44.63141" lon="0.86885">
        <ele>198.65</ele>
        <time>2018-10-21T09:50:03Z</time>
      </trkpt>
      <trkpt lat="44.63091" lon="0.86957">
        <ele>205.38</ele>
        <time>2018-10-21T09:50:33Z</time>
      </trkpt>
      <trkpt lat="44.63078" lon="0.87035">
        <ele>211.63</ele>
        <time>2018-10-21T09:51:03Z</time>
      </trkpt>
      <trkpt lat="44.63105" lon="0.87104">
        <ele>216.91</ele>
        <time>2018-10-21T09:51:33Z</time>
      </trkpt>
      <trkpt lat="44.63129" lon="0.87115">
        <ele>219.32</ele>
        <time>2018-10-21T09:52:03Z</time>
      </trkpt>
      <trkpt lat="44.63128" lon="0.87113">
        <ele>219.32</ele>
        <time>2018-10-21T09:52:33Z</time>
      </trkpt>
      <trkpt lat="44.63126" lon="0.87115">
        <ele>218.84</ele>
        <time>2018-10-21T09:53:03Z</time>
      </trkpt>
      <trkpt lat="44.63126" lon="0.87118">
        <ele>219.32</ele>
        <time>2018-10-21T09:53:33Z</time>
      </trkpt>
      <trkpt lat="44.63125" lon="0.87119">
        <ele>218.84</ele>
        <time>2018-10-21T09:54:03Z</time>
      </trkpt>
      <trkpt lat="44.63125" lon="0.87124">
        <ele>218.36</ele>
        <time>2018-10-21T09:54:33Z</time>
      </trkpt>
      <trkpt lat="44.63124" lon="0.87121">
        <ele>219.32</ele>
        <time>2018-10-21T09:55:03Z</time>
      </trkpt>
      <trkpt lat="44.63125" lon="0.87123">
        <ele>219.32</ele>
        <time>2018-10-21T09:55:33Z</time>
      </trkpt>
      <trkpt lat="44.63126" lon="0.87122">
        <ele>219.8</ele>
        <time>2018-10-21T09:56:03Z</time>
      </trkpt>
      <trkpt lat="44.63127" lon="0.8712">
        <ele>219.32</ele>
        <time>2018-10-21T09:56:33Z</time>
      </trkpt>
      <trkpt lat="44.63126" lon="0.87123">
        <ele>219.32</ele>
        <time>2018-10-21T09:57:03Z</time>
      </trkpt>
      <trkpt lat="44.63128" lon="0.8712">
        <ele>219.32</ele>
        <time>2018-10-21T09:57:33Z</time>
      </trkpt>
      <trkpt lat="44.6313" lon="0.87119">
        <ele>219.32</ele>
        <time>2018-10-21T09:58:03Z</time>
      </trkpt>
      <trkpt lat="44.63129" lon="0.87117">
        <ele>220.28</ele>
        <time>2018-10-21T09:58:33Z</time>
      </trkpt>
      <trkpt lat="44.63127" lon="0.87117">
        <ele>219.32</ele>
        <time>2018-10-21T09:59:03Z</time>
      </trkpt>
      <trkpt lat="44.63126" lon="0.87116">
        <ele>219.32</ele>
        <time>2018-10-21T09:59:33Z</time>
      </trkpt>
      <trkpt lat="44.63127" lon="0.87117">
        <ele>219.8</ele>
        <time>2018-10-21T10:00:03Z</time>
      </trkpt>
      <trkpt lat="44.63128" lon="0.87118">
        <ele>220.28</ele>
        <time>2018-10-21T10:00:33Z</time>
      </trkpt>
      <trkpt lat="44.63129" lon="0.87115">
        <ele>220.28</ele>
        <time>2018-10-21T10:01:03Z</time>
      </trkpt>
      <trkpt lat="44.63127" lon="0.87115">
        <ele>220.28</ele>
        <time>2018-10-21T10:01:33Z</time>
      </trkpt>
      <trkpt lat="44.63126" lon="0.87116">
        <ele>220.28</ele>
        <time>2018-10-21T10:02:03Z</time>
      </trkpt>
      <trkpt lat="44.63127" lon="0.87116">
        <ele>220.28</ele>
        <time>2018-10-21T10:02:33Z</time>
      </trkpt>
      <trkpt lat="44.63126" lon="0.87117">
        <ele>220.28</ele>
        <time>2018-10-21T10:03:03Z</time>
      </trkpt>
      <trkpt lat="44.63129" lon="0.87116">
        <ele>220.76</ele>
        <time>2018-10-21T10:03:33Z</time>
      </trkpt>
      <trkpt lat="44.63129" lon="0.87118">
        <ele>220.28</ele>
        <time>2018-10-21T10:04:03Z</time>
      </trkpt>
      <trkpt lat="44.63126" lon="0.87119">
        <ele>220.28</ele>
        <time>2018-10-21T10:04:33Z</time>
      </trkpt>
      <trkpt lat="44.63126" lon="0.87119">
        <ele>220.76</ele>
        <time>2018-10-21T10:05:03Z</time>
      </trkpt>
      <trkpt lat="44.63126" lon="0.8712">
        <ele>220.76</ele>
        <time>2018-10-21T10:05:33Z</time>
      </trkpt>
      <trkpt lat="44.63125" lon="0.87121">
        <ele>220.76</ele>
        <time>2018-10-21T10:06:03Z</time>
      </trkpt>
      <trkpt lat="44.63126" lon="0.87122">
        <ele>220.76</ele>
        <time>2018-10-21T10:06:33Z</time>
      </trkpt>
      <trkpt lat="44.63127" lon="0.87125">
        <ele>221.72</ele>
        <time>2018-10-21T10:07:03Z</time>
      </trkpt>
      <trkpt lat="44.63127" lon="0.87122">
        <ele>220.76</ele>
        <time>2018-10-21T10:07:33Z</time>
      </trkpt>
      <trkpt lat="44.63128" lon="0.87123">
        <ele>221.72</ele>
        <time>2018-10-21T10:08:03Z</time>
      </trkpt>
      <trkpt lat="44.63128" lon="0.87122">
        <ele>221.24</ele>
        <time>2018-10-21T10:08:33Z</time>
      </trkpt>
      <trkpt lat="44.63127" lon="0.87121">
        <ele>221.72</ele>
        <time>2018-10-21T10:09:03Z</time>
      </trkpt>
      <trkpt lat="44.63128" lon="0.87122">
        <ele>221.72</ele>
        <time>2018-10-21T10:09:33Z</time>
      </trkpt>
      <trkpt lat="44.63128" lon="0.87122">
        <ele>221.72</ele>
        <time>2018-10-21T10:10:03Z</time>
      </trkpt>
      <trkpt lat="44.63127" lon="0.87126">
        <ele>221.24</ele>
        <time>2018-10-21T10:10:33Z</time>
      </trkpt>
      <trkpt lat="44.63124" lon="0.87125">
        <ele>221.72</ele>
        <time>2018-10-21T10:11:03Z</time>
      </trkpt>
      <trkpt lat="44.63124" lon="0.87123">
        <ele>221.72</ele>
        <time>2018-10-21T10:11:33Z</time>
      </trkpt>
      <trkpt lat="44.63124" lon="0.87123">
        <ele>221.72</ele>
        <time>2018-10-21T10:12:03Z</time>
      </trkpt>
      <trkpt lat="44.63125" lon="0.87122">
        <ele>222.2</ele>
        <time>2018-10-21T10:12:33Z</time>
      </trkpt>
      <trkpt lat="44.63126" lon="0.8712">
        <ele>221.24</ele>
        <time>2018-10-21T10:13:03Z</time>
      </trkpt>
      <trkpt lat="44.63126" lon="0.87119">
        <ele>221.72</ele>
        <time>2018-10-21T10:13:33Z</time>
      </trkpt>
      <trkpt lat="44.63126" lon="0.87119">
        <ele>221.72</ele>
        <time>2018-10-21T10:14:03Z</time>
      </trkpt>
      <trkpt lat="44.6313" lon="0.87118">
        <ele>222.68</ele>
        <time>2018-10-21T10:14:33Z</time>
      </trkpt>
      <trkpt lat="44.63133" lon="0.87119">
        <ele>223.16</ele>
        <time>2018-10-21T10:15:03Z</time>
      </trkpt>
      <trkpt lat="44.63134" lon="0.87121">
        <ele>222.68</ele>
        <time>2018-10-21T10:15:33Z</time>
      </trkpt>
      <trkpt lat="44.63131" lon="0.87121">
        <ele>223.16</ele>
        <time>2018-10-21T10:16:03Z</time>
      </trkpt>
      <trkpt lat="44.63131" lon="0.87123">
        <ele>223.16</ele>
        <time>2018-10-21T10:16:33Z</time>
      </trkpt>
      <trkpt lat="44.63131" lon="0.8712">
        <ele>223.64</ele>
        <time>2018-10-21T10:17:03Z</time>
      </trkpt>
      <trkpt lat="44.63134" lon="0.87118">
        <ele>223.16</ele>
        <time>2018-10-21T10:17:33Z</time>
      </trkpt>
      <trkpt lat="44.63134" lon="0.87119">
        <ele>223.64</ele>
        <time>2018-10-21T10:18:03Z</time>
      </trkpt>
      <trkpt lat="44.63136" lon="0.87118">
        <ele>223.64</ele>
        <time>2018-10-21T10:18:33Z</time>
      </trkpt>
      <trkpt lat="44.63135" lon="0.87117">
        <ele>224.12</ele>
        <time>2018-10-21T10:19:03Z</time>
      </trkpt>
      <trkpt lat="44.63135" lon="0.87116">
        <ele>223.64</ele>
        <time>2018-10-21T10:19:33Z</time>
      </trkpt>
      <trkpt lat="44.63138" lon="0.87117">
        <ele>224.12</ele>
        <time>2018-10-21T10:20:03Z</time>
      </trkpt>
      <trkpt lat="44.63132" lon="0.87117">
        <ele>224.12</ele>
        <time>2018-10-21T10:20:33Z</time>
      </trkpt>
      <trkpt lat="44.6313" lon="0.87117">
        <ele>224.61</ele>
        <time>2018-10-21T10:21:03Z</time>
      </trkpt>
      <trkpt lat="44.63131" lon="0.87118">
        <ele>224.61</ele>
        <time>2018-10-21T10:21:33Z</time>
      </trkpt>
      <trkpt lat="44.63134" lon="0.87119">
        <ele>225.09</ele>
        <time>2018-10-21T10:22:03Z</time>
      </trkpt>
      <trkpt lat="44.63132" lon="0.8712">
        <ele>225.09</ele>
        <time>2018-10-21T10:22:33Z</time>
      </trkpt>
      <trkpt lat="44.63129" lon="0.87116">
        <ele>225.09</ele>
        <time>2018-10-21T10:23:03Z</time>
      </trkpt>
      <trkpt lat="44.63127" lon="0.87113">
        <ele>225.09</ele>
        <time>2018-10-21T10:23:33Z</time>
      </trkpt>
      <trkpt lat="44.63125" lon="0.87115">
        <ele>226.05</ele>
        <time>2018-10-21T10:24:03Z</time>
      </trkpt>
      <trkpt lat="44.63126" lon="0.87117">
        <ele>225.57</ele>
        <time>2018-10-21T10:24:33Z</time>
      </trkpt>
      <trkpt lat="44.63125" lon="0.87122">
        <ele>225.57</ele>
        <time>2018-10-21T10:25:03Z</time>
      </trkpt>
      <trkpt lat="44.63124" lon="0.87123">
        <ele>226.05</ele>
        <time>2018-10-21T10:25:33Z</time>
      </trkpt>
      <trkpt lat="44.63125" lon="0.87121">
        <ele>225.57</ele>
        <time>2018-10-21T10:26:03Z</time>
      </trkpt>
      <trkpt lat="44.63126" lon="0.87121">
        <ele>225.57</ele>
        <time>2018-10-21T10:26:33Z</time>
      </trkpt>
      <trkpt lat="44.63126" lon="0.8712">
        <ele>226.05</ele>
        <time>2018-10-21T10:27:03Z</time>
      </trkpt>
      <trkpt lat="44.63129" lon="0.87118">
        <ele>225.57</ele>
        <time>2018-10-21T10:27:33Z</time>
      </trkpt>
      <trkpt lat="44.63129" lon="0.87118">
        <ele>225.57</ele>
        <time>2018-10-21T10:28:03Z</time>
      </trkpt>
      <trkpt lat="44.63135" lon="0.87117">
        <ele>226.05</ele>
        <time>2018-10-21T10:28:33Z</time>
      </trkpt>
      <trkpt lat="44.6313" lon="0.8712">
        <ele>226.53</ele>
        <time>2018-10-21T10:29:03Z</time>
      </trkpt>
      <trkpt lat="44.63134" lon="0.8712">
        <ele>226.53</ele>
        <time>2018-10-21T10:29:33Z</time>
      </trkpt>
      <trkpt lat="44.63138" lon="0.8712">
        <ele>226.53</ele>
        <time>2018-10-21T10:30:03Z</time>
      </trkpt>
      <trkpt lat="44.63137" lon="0.87121">
        <ele>226.53</ele>
        <time>2018-10-21T10:30:33Z</time>
      </trkpt>
      <trkpt lat="44.63136" lon="0.87121">
        <ele>227.01</ele>
        <time>2018-10-21T10:31:03Z</time>
      </trkpt>
      <trkpt lat="44.63135" lon="0.87121">
        <ele>227.01</ele>
        <time>2018-10-21T10:31:33Z</time>
      </trkpt>
      <trkpt lat="44.63133" lon="0.8712">
        <ele>227.49</ele>
        <time>2018-10-21T10:32:03Z</time>
      </trkpt>
      <trkpt lat="44.63136" lon="0.87119">
        <ele>227.49</ele>
        <time>2018-10-21T10:32:33Z</time>
      </trkpt>
      <trkpt lat="44.63134" lon="0.87118">
        <ele>227.97</ele>
        <time>2018-10-21T10:33:03Z</time>
      </trkpt>
      <trkpt lat="44.63131" lon="0.87118">
        <ele>228.45</ele>
        <time>2018-10-21T10:33:33Z</time>
      </trkpt>
      <trkpt lat="44.63133" lon="0.87122">
        <ele>227.97</ele>
        <time>2018-10-21T10:34:03Z</time>
      </trkpt>
      <trkpt lat="44.63136" lon="0.8712">
        <ele>228.45</ele>
        <time>2018-10-21T10:34:33Z</time>
      </trkpt>
      <trkpt lat="44.6314" lon="0.87119">
        <ele>228.45</ele>
        <time>2018-10-21T10:35:03Z</time>
      </trkpt>
      <trkpt lat="44.63138" lon="0.87122">
        <ele>228.45</ele>
        <time>2018-10-21T10:35:33Z</time>
      </trkpt>
      <trkpt lat="44.63137" lon="0.87123">
        <ele>228.93</ele>
        <time>2018-10-21T10:36:03Z</time>
      </trkpt>
      <trkpt lat="44.6314" lon="0.87122">
        <ele>228.93</ele>
        <time>2018-10-21T10:36:33Z</time>
      </trkpt>
      <trkpt lat="44.63138" lon="0.87121">
        <ele>228.93</ele>
        <time>2018-10-21T10:37:03Z</time>
      </trkpt>
      <trkpt lat="44.63131" lon="0.87119">
        <ele>229.89</ele>
        <time>2018-10-21T10:37:33Z</time>
      </trkpt>
      <trkpt lat="44.63161" lon="0.8711">
        <ele>230.37</ele>
        <time>2018-10-21T10:38:03Z</time>
      </trkpt>
      <trkpt lat="44.63219" lon="0.8712">
        <ele>231.81</ele>
        <time>2018-10-21T10:38:33Z</time>
      </trkpt>
      <trkpt lat="44.63243" lon="0.87151">
        <ele>232.3</ele>
        <time>2018-10-21T10:39:03Z</time>
      </trkpt>
      <trkpt lat="44.63208" lon="0.87156">
        <ele>235.66</ele>
        <time>2018-10-21T10:39:33Z</time>
      </trkpt>
      <trkpt lat="44.63171" lon="0.87164">
        <ele>237.58</ele>
        <time>2018-10-21T10:40:03Z</time>
      </trkpt>
      <trkpt lat="44.6317" lon="0.87169">
        <ele>237.1</ele>
        <time>2018-10-21T10:40:33Z</time>
      </trkpt>
      <trkpt lat="44.63173" lon="0.87169">
        <ele>237.58</ele>
        <time>2018-10-21T10:41:03Z</time>
      </trkpt>
      <trkpt lat="44.63168" lon="0.87165">
        <ele>237.1</ele>
        <time>2018-10-21T10:41:33Z</time>
      </trkpt>
      <trkpt lat="44.6316" lon="0.87166">
        <ele>235.66</ele>
        <time>2018-10-21T10:42:03Z</time>
      </trkpt>
      <trkpt lat="44.63158" lon="0.87167">
        <ele>235.18</ele>
        <time>2018-10-21T10:42:33Z</time>
      </trkpt>
      <trkpt lat="44.63157" lon="0.87169">
        <ele>235.18</ele>
        <time>2018-10-21T10:43:03Z</time>
      </trkpt>
      <trkpt lat="44.63144" lon="0.87177">
        <ele>233.74</ele>
        <time>2018-10-21T10:43:33Z</time>
      </trkpt>
      <trkpt lat="44.63138" lon="0.87229">
        <ele>234.22</ele>
        <time>2018-10-21T10:44:03Z</time>
      </trkpt>
      <trkpt lat="44.63114" lon="0.87208">
        <ele>230.37</ele>
        <time>2018-10-21T10:44:33Z</time>
      </trkpt>
      <trkpt lat="44.63112" lon="0.87209">
        <ele>229.89</ele>
        <time>2018-10-21T10:45:03Z</time>
      </trkpt>
      <trkpt lat="44.63111" lon="0.87211">
        <ele>229.89</ele>
        <time>2018-10-21T10:45:33Z</time>
      </trkpt>
      <trkpt lat="44.63114" lon="0.87213">
        <ele>229.89</ele>
        <time>2018-10-21T10:46:03Z</time>
      </trkpt>
      <trkpt lat="44.63098" lon="0.87255">
        <ele>224.61</ele>
        <time>2018-10-21T10:46:33Z</time>
      </trkpt>
      <trkpt lat="44.63097" lon="0.87259">
        <ele>223.64</ele>
        <time>2018-10-21T10:47:03Z</time>
      </trkpt>
      <trkpt lat="44.63091" lon="0.87272">
        <ele>221.72</ele>
        <time>2018-10-21T10:47:33Z</time>
      </trkpt>
      <trkpt lat="44.63065" lon="0.87326">
        <ele>215.95</ele>
        <time>2018-10-21T10:48:03Z</time>
      </trkpt>
      <trkpt lat="44.63053" lon="0.87348">
        <ele>214.03</ele>
        <time>2018-10-21T10:48:33Z</time>
      </trkpt>
      <trkpt lat="44.63053" lon="0.87349">
        <ele>214.03</ele>
        <time>2018-10-21T10:49:03Z</time>
      </trkpt>
      <trkpt lat="44.6305" lon="0.8736">
        <ele>214.51</ele>
        <time>2018-10-21T10:49:33Z</time>
      </trkpt>
      <trkpt lat="44.63023" lon="0.87507">
        <ele>206.82</ele>
        <time>2018-10-21T10:50:03Z</time>
      </trkpt>
      <trkpt lat="44.62988" lon="0.87515">
        <ele>207.78</ele>
        <time>2018-10-21T10:50:33Z</time>
      </trkpt>
      <trkpt lat="44.62975" lon="0.8752">
        <ele>207.3</ele>
        <time>2018-10-21T10:51:03Z</time>
      </trkpt>
      <trkpt lat="44.62917" lon="0.87538">
        <ele>208.26</ele>
        <time>2018-10-21T10:51:33Z</time>
      </trkpt>
      <trkpt lat="44.62863" lon="0.87566">
        <ele>210.67</ele>
        <time>2018-10-21T10:52:03Z</time>
      </trkpt>
      <trkpt lat="44.62918" lon="0.87618">
        <ele>212.11</ele>
        <time>2018-10-21T10:52:33Z</time>
      </trkpt>
      <trkpt lat="44.62978" lon="0.87703">
        <ele>213.07</ele>
        <time>2018-10-21T10:53:03Z</time>
      </trkpt>
      <trkpt lat="44.62952" lon="0.87839">
        <ele>213.07</ele>
        <time>2018-10-21T10:53:33Z</time>
      </trkpt>
      <trkpt lat="44.62905" lon="0.87887">
        <ele>213.07</ele>
        <time>2018-10-21T10:54:03Z</time>
      </trkpt>
      <trkpt lat="44.62844" lon="0.87881">
        <ele>208.26</ele>
        <time>2018-10-21T10:54:33Z</time>
      </trkpt>
      <trkpt lat="44.62753" lon="0.87976">
        <ele>202.98</ele>
        <time>2018-10-21T10:55:03Z</time>
      </trkpt>
      <trkpt lat="44.62697" lon="0.88045">
        <ele>206.82</ele>
        <time>2018-10-21T10:55:33Z</time>
      </trkpt>
      <trkpt lat="44.62669" lon="0.881">
        <ele>206.34</ele>
        <time>2018-10-21T10:56:03Z</time>
      </trkpt>
      <trkpt lat="44.62635" lon="0.88164">
        <ele>202.98</ele>
        <time>2018-10-21T10:56:33Z</time>
      </trkpt>
      <trkpt lat="44.6254" lon="0.88226">
        <ele>196.25</ele>
        <time>2018-10-21T10:57:03Z</time>
      </trkpt>
      <trkpt lat="44.62461" lon="0.88226">
        <ele>186.63</ele>
        <time>2018-10-21T10:57:33Z</time>
      </trkpt>
      <trkpt lat="44.62379" lon="0.88227">
        <ele>183.27</ele>
        <time>2018-10-21T10:58:03Z</time>
      </trkpt>
      <trkpt lat="44.6225" lon="0.88311">
        <ele>178.94</ele>
        <time>2018-10-21T10:58:33Z</time>
      </trkpt>
      <trkpt lat="44.62151" lon="0.88313">
        <ele>178.46</ele>
        <time>2018-10-21T10:59:03Z</time>
      </trkpt>
      <trkpt lat="44.62097" lon="0.88258">
        <ele>179.42</ele>
        <time>2018-10-21T10:59:33Z</time>
      </trkpt>
      <trkpt lat="44.62043" lon="0.88283">
        <ele>181.83</ele>
        <time>2018-10-21T11:00:03Z</time>
      </trkpt>
      <trkpt lat="44.61978" lon="0.88298">
        <ele>187.59</ele>
        <time>2018-10-21T11:00:33Z</time>
      </trkpt>
      <trkpt lat="44.61911" lon="0.88318">
        <ele>192.4</ele>
        <time>2018-10-21T11:01:03Z</time>
      </trkpt>
      <trkpt lat="44.61846" lon="0.88364">
        <ele>195.77</ele>
        <time>2018-10-21T11:01:33Z</time>
      </trkpt>
      <trkpt lat="44.6179" lon="0.88419">
        <ele>202.98</ele>
        <time>2018-10-21T11:02:03Z</time>
      </trkpt>
      <trkpt lat="44.61769" lon="0.88429">
        <ele>206.82</ele>
        <time>2018-10-21T11:02:33Z</time>
      </trkpt>
      <trkpt lat="44.61761" lon="0.88436">
        <ele>207.78</ele>
        <time>2018-10-21T11:03:03Z</time>
      </trkpt>
      <trkpt lat="44.61708" lon="0.88466">
        <ele>216.91</ele>
        <time>2018-10-21T11:03:33Z</time>
      </trkpt>
      <trkpt lat="44.61694" lon="0.88471">
        <ele>218.84</ele>
        <time>2018-10-21T11:04:03Z</time>
      </trkpt>
      <trkpt lat="44.61692" lon="0.88473">
        <ele>218.36</ele>
        <time>2018-10-21T11:04:33Z</time>
      </trkpt>
      <trkpt lat="44.61693" lon="0.88473">
        <ele>217.88</ele>
        <time>2018-10-21T11:05:03Z</time>
      </trkpt>
      <trkpt lat="44.6169" lon="0.88473">
        <ele>218.36</ele>
        <time>2018-10-21T11:05:33Z</time>
      </trkpt>
      <trkpt lat="44.61691" lon="0.88473">
        <ele>218.36</ele>
        <time>2018-10-21T11:06:03Z</time>
      </trkpt>
      <trkpt lat="44.61692" lon="0.8847">
        <ele>217.88</ele>
        <time>2018-10-21T11:06:33Z</time>
      </trkpt>
      <trkpt lat="44.61691" lon="0.88471">
        <ele>218.36</ele>
        <time>2018-10-21T11:07:03Z</time>
      </trkpt>
      <trkpt lat="44.61693" lon="0.88472">
        <ele>218.36</ele>
        <time>2018-10-21T11:07:33Z</time>
      </trkpt>
      <trkpt lat="44.61696" lon="0.88474">
        <ele>217.88</ele>
        <time>2018-10-21T11:08:03Z</time>
      </trkpt>
      <trkpt lat="44.61693" lon="0.88473">
        <ele>217.88</ele>
        <time>2018-10-21T11:08:33Z</time>
      </trkpt>
      <trkpt lat="44.61693" lon="0.88472">
        <ele>217.88</ele>
        <time>2018-10-21T11:09:03Z</time>
      </trkpt>
      <trkpt lat="44.61692" lon="0.88476">
        <ele>217.88</ele>
        <time>2018-10-21T11:09:33Z</time>
      </trkpt>
      <trkpt lat="44.61691" lon="0.88477">
        <ele>217.88</ele>
        <time>2018-10-21T11:10:03Z</time>
      </trkpt>
      <trkpt lat="44.61692" lon="0.88475">
        <ele>217.88</ele>
        <time>2018-10-21T11:10:33Z</time>
      </trkpt>
      <trkpt lat="44.61692" lon="0.88478">
        <ele>217.4</ele>
        <time>2018-10-21T11:11:03Z</time>
      </trkpt>
      <trkpt lat="44.61691" lon="0.88477">
        <ele>217.4</ele>
        <time>2018-10-21T11:11:33Z</time>
      </trkpt>
      <trkpt lat="44.61694" lon="0.88476">
        <ele>217.4</ele>
        <time>2018-10-21T11:12:03Z</time>
      </trkpt>
      <trkpt lat="44.61694" lon="0.88476">
        <ele>217.4</ele>
        <time>2018-10-21T11:12:33Z</time>
      </trkpt>
      <trkpt lat="44.61693" lon="0.88476">
        <ele>217.4</ele>
        <time>2018-10-21T11:13:03Z</time>
      </trkpt>
      <trkpt lat="44.61693" lon="0.88478">
        <ele>217.4</ele>
        <time>2018-10-21T11:13:33Z</time>
      </trkpt>
      <trkpt lat="44.61692" lon="0.88474">
        <ele>216.91</ele>
        <time>2018-10-21T11:14:03Z</time>
      </trkpt>
      <trkpt lat="44.61657" lon="0.88454">
        <ele>217.4</ele>
        <time>2018-10-21T11:14:33Z</time>
      </trkpt>
      <trkpt lat="44.61564" lon="0.88457">
        <ele>216.43</ele>
        <time>2018-10-21T11:15:03Z</time>
      </trkpt>
      <trkpt lat="44.61455" lon="0.88479">
        <ele>216.91</ele>
        <time>2018-10-21T11:15:33Z</time>
      </trkpt>
      <trkpt lat="44.61271" lon="0.88562">
        <ele>203.94</ele>
        <time>2018-10-21T11:16:03Z</time>
      </trkpt>
      <trkpt lat="44.61118" lon="0.88666">
        <ele>196.73</ele>
        <time>2018-10-21T11:16:33Z</time>
      </trkpt>
      <trkpt lat="44.61037" lon="0.8863">
        <ele>195.77</ele>
        <time>2018-10-21T11:17:03Z</time>
      </trkpt>
      <trkpt lat="44.6096" lon="0.88783">
        <ele>188.56</ele>
        <time>2018-10-21T11:17:33Z</time>
      </trkpt>
      <trkpt lat="44.60871" lon="0.88853">
        <ele>192.88</ele>
        <time>2018-10-21T11:18:03Z</time>
      </trkpt>
      <trkpt lat="44.60775" lon="0.88917">
        <ele>189.52</ele>
        <time>2018-10-21T11:18:33Z</time>
      </trkpt>
      <trkpt lat="44.60656" lon="0.88974">
        <ele>191.44</ele>
        <time>2018-10-21T11:19:03Z</time>
      </trkpt>
      <trkpt lat="44.60518" lon="0.8904">
        <ele>186.63</ele>
        <time>2018-10-21T11:19:33Z</time>
      </trkpt>
      <trkpt lat="44.60392" lon="0.89119">
        <ele>182.79</ele>
        <time>2018-10-21T11:20:03Z</time>
      </trkpt>
      <trkpt lat="44.60279" lon="0.89229">
        <ele>177.98</ele>
        <time>2018-10-21T11:20:33Z</time>
      </trkpt>
      <trkpt lat="44.60227" lon="0.8925">
        <ele>179.42</ele>
        <time>2018-10-21T11:21:03Z</time>
      </trkpt>
      <trkpt lat="44.60176" lon="0.89287">
        <ele>176.06</ele>
        <time>2018-10-21T11:21:33Z</time>
      </trkpt>
      <trkpt lat="44.60135" lon="0.89314">
        <ele>176.06</ele>
        <time>2018-10-21T11:22:03Z</time>
      </trkpt>
      <trkpt lat="44.6012" lon="0.89378">
        <ele>178.94</ele>
        <time>2018-10-21T11:22:33Z</time>
      </trkpt>
      <trkpt lat="44.60092" lon="0.89447">
        <ele>178.46</ele>
        <time>2018-10-21T11:23:03Z</time>
      </trkpt>
      <trkpt lat="44.60067" lon="0.89524">
        <ele>177.02</ele>
        <time>2018-10-21T11:23:33Z</time>
      </trkpt>
      <trkpt lat="44.60063" lon="0.89591">
        <ele>175.58</ele>
        <time>2018-10-21T11:24:03Z</time>
      </trkpt>
      <trkpt lat="44.6005" lon="0.89678">
        <ele>176.54</ele>
        <time>2018-10-21T11:24:33Z</time>
      </trkpt>
      <trkpt lat="44.60034" lon="0.89752">
        <ele>176.54</ele>
        <time>2018-10-21T11:25:03Z</time>
      </trkpt>
      <trkpt lat="44.60015" lon="0.89861">
        <ele>165.96</ele>
        <time>2018-10-21T11:25:33Z</time>
      </trkpt>
      <trkpt lat="44.60025" lon="0.89938">
        <ele>165</ele>
        <time>2018-10-21T11:26:03Z</time>
      </trkpt>
      <trkpt lat="44.60023" lon="0.89938">
        <ele>164.52</ele>
        <time>2018-10-21T11:26:33Z</time>
      </trkpt>
      <trkpt lat="44.60019" lon="0.89947">
        <ele>164.52</ele>
        <time>2018-10-21T11:27:03Z</time>
      </trkpt>
      <trkpt lat="44.60017" lon="0.89958">
        <ele>164.52</ele>
        <time>2018-10-21T11:27:33Z</time>
      </trkpt>
      <trkpt lat="44.59985" lon="0.90053">
        <ele>165.48</ele>
        <time>2018-10-21T11:28:03Z</time>
      </trkpt>
      <trkpt lat="44.59958" lon="0.90153">
        <ele>171.25</ele>
        <time>2018-10-21T11:28:33Z</time>
      </trkpt>
      <trkpt lat="44.59978" lon="0.90221">
        <ele>177.98</ele>
        <time>2018-10-21T11:29:03Z</time>
      </trkpt>
      <trkpt lat="44.59991" lon="0.90297">
        <ele>182.31</ele>
        <time>2018-10-21T11:29:33Z</time>
      </trkpt>
      <trkpt lat="44.59997" lon="0.90379">
        <ele>186.15</ele>
        <time>2018-10-21T11:30:03Z</time>
      </trkpt>
      <trkpt lat="44.60005" lon="0.90486">
        <ele>188.56</ele>
        <time>2018-10-21T11:30:33Z</time>
      </trkpt>
      <trkpt lat="44.60005" lon="0.90571">
        <ele>193.36</ele>
        <time>2018-10-21T11:31:03Z</time>
      </trkpt>
      <trkpt lat="44.60007" lon="0.90629">
        <ele>200.09</ele>
        <time>2018-10-21T11:31:33Z</time>
      </trkpt>
      <trkpt lat="44.59968" lon="0.90706">
        <ele>199.13</ele>
        <time>2018-10-21T11:32:03Z</time>
      </trkpt>
      <trkpt lat="44.59951" lon="0.90826">
        <ele>202.49</ele>
        <time>2018-10-21T11:32:33Z</time>
      </trkpt>
      <trkpt lat="44.59935" lon="0.90908">
        <ele>207.78</ele>
        <time>2018-10-21T11:33:03Z</time>
      </trkpt>
      <trkpt lat="44.59894" lon="0.90967">
        <ele>213.07</ele>
        <time>2018-10-21T11:33:33Z</time>
      </trkpt>
      <trkpt lat="44.59844" lon="0.91028">
        <ele>219.8</ele>
        <time>2018-10-21T11:34:03Z</time>
      </trkpt>
      <trkpt lat="44.59807" lon="0.91099">
        <ele>226.05</ele>
        <time>2018-10-21T11:34:33Z</time>
      </trkpt>
      <trkpt lat="44.59785" lon="0.91134">
        <ele>229.89</ele>
        <time>2018-10-21T11:35:03Z</time>
      </trkpt>
      <trkpt lat="44.59783" lon="0.91133">
        <ele>229.41</ele>
        <time>2018-10-21T11:35:33Z</time>
      </trkpt>
      <trkpt lat="44.59783" lon="0.91137">
        <ele>229.41</ele>
        <time>2018-10-21T11:36:03Z</time>
      </trkpt>
      <trkpt lat="44.59782" lon="0.91133">
        <ele>229.41</ele>
        <time>2018-10-21T11:36:33Z</time>
      </trkpt>
      <trkpt lat="44.59781" lon="0.91135">
        <ele>229.89</ele>
        <time>2018-10-21T11:37:03Z</time>
      </trkpt>
      <trkpt lat="44.5978" lon="0.91136">
        <ele>229.89</ele>
        <time>2018-10-21T11:37:33Z</time>
      </trkpt>
      <trkpt lat="44.59774" lon="0.91154">
        <ele>230.85</ele>
        <time>2018-10-21T11:38:03Z</time>
      </trkpt>
      <trkpt lat="44.59757" lon="0.91221">
        <ele>233.74</ele>
        <time>2018-10-21T11:38:33Z</time>
      </trkpt>
      <trkpt lat="44.59737" lon="0.91331">
        <ele>234.22</ele>
        <time>2018-10-21T11:39:03Z</time>
      </trkpt>
      <trkpt lat="44.59713" lon="0.915">
        <ele>231.33</ele>
        <time>2018-10-21T11:39:33Z</time>
      </trkpt>
      <trkpt lat="44.59637" lon="0.91594">
        <ele>227.49</ele>
        <time>2018-10-21T11:40:03Z</time>
      </trkpt>
      <trkpt lat="44.59564" lon="0.91619">
        <ele>229.89</ele>
        <time>2018-10-21T11:40:33Z</time>
      </trkpt>
      <trkpt lat="44.59524" lon="0.91629">
        <ele>226.53</ele>
        <time>2018-10-21T11:41:03Z</time>
      </trkpt>
      <trkpt lat="44.59447" lon="0.9171">
        <ele>219.8</ele>
        <time>2018-10-21T11:41:33Z</time>
      </trkpt>
      <trkpt lat="44.59381" lon="0.91732">
        <ele>228.45</ele>
        <time>2018-10-21T11:42:03Z</time>
      </trkpt>
      <trkpt lat="44.59336" lon="0.9175">
        <ele>232.3</ele>
        <time>2018-10-21T11:42:33Z</time>
      </trkpt>
      <trkpt lat="44.59287" lon="0.91777">
        <ele>233.74</ele>
        <time>2018-10-21T11:43:03Z</time>
      </trkpt>
      <trkpt lat="44.59258" lon="0.91851">
        <ele>236.14</ele>
        <time>2018-10-21T11:43:33Z</time>
      </trkpt>
      <trkpt lat="44.59237" lon="0.91923">
        <ele>238.54</ele>
        <time>2018-10-21T11:44:03Z</time>
      </trkpt>
      <trkpt lat="44.59239" lon="0.92001">
        <ele>241.91</ele>
        <time>2018-10-21T11:44:33Z</time>
      </trkpt>
      <trkpt lat="44.59257" lon="0.92133">
        <ele>237.58</ele>
        <time>2018-10-21T11:45:03Z</time>
      </trkpt>
      <trkpt lat="44.59293" lon="0.92314">
        <ele>242.39</ele>
        <time>2018-10-21T11:45:33Z</time>
      </trkpt>
      <trkpt lat="44.59314" lon="0.92431">
        <ele>246.23</ele>
        <time>2018-10-21T11:46:03Z</time>
      </trkpt>
      <trkpt lat="44.59284" lon="0.92523">
        <ele>248.16</ele>
        <time>2018-10-21T11:46:33Z</time>
      </trkpt>
      <trkpt lat="44.59251" lon="0.92584">
        <ele>247.68</ele>
        <time>2018-10-21T11:47:03Z</time>
      </trkpt>
      <trkpt lat="44.59212" lon="0.92682">
        <ele>247.2</ele>
        <time>2018-10-21T11:47:33Z</time>
      </trkpt>
      <trkpt lat="44.59194" lon="0.92754">
        <ele>249.12</ele>
        <time>2018-10-21T11:48:03Z</time>
      </trkpt>
      <trkpt lat="44.59194" lon="0.92751">
        <ele>249.12</ele>
        <time>2018-10-21T11:48:33Z</time>
      </trkpt>
      <trkpt lat="44.59193" lon="0.92749">
        <ele>249.12</ele>
        <time>2018-10-21T11:49:03Z</time>
      </trkpt>
      <trkpt lat="44.59192" lon="0.92748">
        <ele>249.12</ele>
        <time>2018-10-21T11:49:33Z</time>
      </trkpt>
      <trkpt lat="44.59194" lon="0.92748">
        <ele>249.6</ele>
        <time>2018-10-21T11:50:03Z</time>
      </trkpt>
      <trkpt lat="44.59195" lon="0.92748">
        <ele>249.6</ele>
        <time>2018-10-21T11:50:33Z</time>
      </trkpt>
      <trkpt lat="44.59206" lon="0.92752">
        <ele>249.6</ele>
        <time>2018-10-21T11:51:03Z</time>
      </trkpt>
      <trkpt lat="44.59239" lon="0.92816">
        <ele>250.08</ele>
        <time>2018-10-21T11:51:33Z</time>
      </trkpt>
      <trkpt lat="44.59326" lon="0.92894">
        <ele>248.16</ele>
        <time>2018-10-21T11:52:03Z</time>
      </trkpt>
      <trkpt lat="44.59407" lon="0.93005">
        <ele>248.16</ele>
        <time>2018-10-21T11:52:33Z</time>
      </trkpt>
      <trkpt lat="44.59421" lon="0.93035">
        <ele>249.12</ele>
        <time>2018-10-21T11:53:03Z</time>
      </trkpt>
      <trkpt lat="44.59465" lon="0.93059">
        <ele>244.79</ele>
        <time>2018-10-21T11:53:33Z</time>
      </trkpt>
      <trkpt lat="44.59587" lon="0.9313">
        <ele>243.83</ele>
        <time>2018-10-21T11:54:03Z</time>
      </trkpt>
      <trkpt lat="44.59658" lon="0.93207">
        <ele>248.16</ele>
        <time>2018-10-21T11:54:33Z</time>
      </trkpt>
      <trkpt lat="44.59699" lon="0.93309">
        <ele>251.52</ele>
        <time>2018-10-21T11:55:03Z</time>
      </trkpt>
      <trkpt lat="44.59738" lon="0.93399">
        <ele>250.56</ele>
        <time>2018-10-21T11:55:33Z</time>
      </trkpt>
      <trkpt lat="44.59811" lon="0.93456">
        <ele>252</ele>
        <time>2018-10-21T11:56:03Z</time>
      </trkpt>
      <trkpt lat="44.59884" lon="0.93526">
        <ele>255.85</ele>
        <time>2018-10-21T11:56:33Z</time>
      </trkpt>
      <trkpt lat="44.59982" lon="0.93545">
        <ele>258.25</ele>
        <time>2018-10-21T11:57:03Z</time>
      </trkpt>
      <trkpt lat="44.60065" lon="0.93595">
        <ele>261.14</ele>
        <time>2018-10-21T11:57:33Z</time>
      </trkpt>
      <trkpt lat="44.6015" lon="0.93635">
        <ele>263.06</ele>
        <time>2018-10-21T11:58:03Z</time>
      </trkpt>
      <trkpt lat="44.60232" lon="0.93664">
        <ele>267.38</ele>
        <time>2018-10-21T11:58:33Z</time>
      </trkpt>
      <trkpt lat="44.60321" lon="0.93725">
        <ele>262.1</ele>
        <time>2018-10-21T11:59:03Z</time>
      </trkpt>
      <trkpt lat="44.60499" lon="0.9384">
        <ele>253.44</ele>
        <time>2018-10-21T11:59:33Z</time>
      </trkpt>
      <trkpt lat="44.6068" lon="0.93915">
        <ele>253.44</ele>
        <time>2018-10-21T12:00:03Z</time>
      </trkpt>
      <trkpt lat="44.60831" lon="0.94022">
        <ele>252.96</ele>
        <time>2018-10-21T12:00:33Z</time>
      </trkpt>
      <trkpt lat="44.60905" lon="0.94149">
        <ele>252.48</ele>
        <time>2018-10-21T12:01:03Z</time>
      </trkpt>
      <trkpt lat="44.60962" lon="0.94258">
        <ele>251.04</ele>
        <time>2018-10-21T12:01:33Z</time>
      </trkpt>
      <trkpt lat="44.61012" lon="0.94357">
        <ele>250.08</ele>
        <time>2018-10-21T12:02:03Z</time>
      </trkpt>
      <trkpt lat="44.61074" lon="0.94504">
        <ele>249.12</ele>
        <time>2018-10-21T12:02:33Z</time>
      </trkpt>
      <trkpt lat="44.61159" lon="0.94605">
        <ele>249.6</ele>
        <time>2018-10-21T12:03:03Z</time>
      </trkpt>
      <trkpt lat="44.61269" lon="0.94701">
        <ele>250.56</ele>
        <time>2018-10-21T12:03:33Z</time>
      </trkpt>
      <trkpt lat="44.61362" lon="0.94782">
        <ele>251.04</ele>
        <time>2018-10-21T12:04:03Z</time>
      </trkpt>
      <trkpt lat="44.61386" lon="0.94877">
        <ele>246.23</ele>
        <time>2018-10-21T12:04:33Z</time>
      </trkpt>
      <trkpt lat="44.6121" lon="0.9495">
        <ele>235.18</ele>
        <time>2018-10-21T12:05:03Z</time>
      </trkpt>
      <trkpt lat="44.61186" lon="0.95006">
        <ele>232.3</ele>
        <time>2018-10-21T12:05:33Z</time>
      </trkpt>
      <trkpt lat="44.61179" lon="0.95036">
        <ele>232.3</ele>
        <time>2018-10-21T12:06:03Z</time>
      </trkpt>
      <trkpt lat="44.61133" lon="0.95119">
        <ele>229.41</ele>
        <time>2018-10-21T12:06:33Z</time>
      </trkpt>
      <trkpt lat="44.61091" lon="0.95197">
        <ele>234.22</ele>
        <time>2018-10-21T12:07:03Z</time>
      </trkpt>
      <trkpt lat="44.6109" lon="0.95279">
        <ele>238.06</ele>
        <time>2018-10-21T12:07:33Z</time>
      </trkpt>
      <trkpt lat="44.6111" lon="0.95365">
        <ele>239.99</ele>
        <time>2018-10-21T12:08:03Z</time>
      </trkpt>
      <trkpt lat="44.61121" lon="0.95466">
        <ele>242.87</ele>
        <time>2018-10-21T12:08:33Z</time>
      </trkpt>
      <trkpt lat="44.61121" lon="0.9551">
        <ele>242.87</ele>
        <time>2018-10-21T12:09:03Z</time>
      </trkpt>
      <trkpt lat="44.6112" lon="0.95513">
        <ele>243.35</ele>
        <time>2018-10-21T12:09:33Z</time>
      </trkpt>
      <trkpt lat="44.6112" lon="0.95518">
        <ele>242.87</ele>
        <time>2018-10-21T12:10:03Z</time>
      </trkpt>
      <trkpt lat="44.61102" lon="0.95561">
        <ele>243.83</ele>
        <time>2018-10-21T12:10:33Z</time>
      </trkpt>
      <trkpt lat="44.61059" lon="0.95659">
        <ele>244.79</ele>
        <time>2018-10-21T12:11:03Z</time>
      </trkpt>
      <trkpt lat="44.61007" lon="0.95839">
        <ele>238.06</ele>
        <time>2018-10-21T12:11:33Z</time>
      </trkpt>
      <trkpt lat="44.60912" lon="0.96023">
        <ele>234.7</ele>
        <time>2018-10-21T12:12:03Z</time>
      </trkpt>
      <trkpt lat="44.6075" lon="0.96131">
        <ele>228.93</ele>
        <time>2018-10-21T12:12:33Z</time>
      </trkpt>
      <trkpt lat="44.60646" lon="0.96284">
        <ele>227.01</ele>
        <time>2018-10-21T12:13:03Z</time>
      </trkpt>
      <trkpt lat="44.60636" lon="0.96597">
        <ele>208.26</ele>
        <time>2018-10-21T12:13:33Z</time>
      </trkpt>
      <trkpt lat="44.60631" lon="0.96848">
        <ele>197.21</ele>
        <time>2018-10-21T12:14:03Z</time>
      </trkpt>
      <trkpt lat="44.60445" lon="0.9699">
        <ele>181.35</ele>
        <time>2018-10-21T12:14:33Z</time>
      </trkpt>
      <trkpt lat="44.60336" lon="0.9716">
        <ele>165.96</ele>
        <time>2018-10-21T12:15:03Z</time>
      </trkpt>
      <trkpt lat="44.60298" lon="0.97168">
        <ele>161.16</ele>
        <time>2018-10-21T12:15:33Z</time>
      </trkpt>
      <trkpt lat="44.60294" lon="0.97166">
        <ele>160.68</ele>
        <time>2018-10-21T12:16:03Z</time>
      </trkpt>
      <trkpt lat="44.60295" lon="0.97167">
        <ele>160.68</ele>
        <time>2018-10-21T12:16:33Z</time>
      </trkpt>
      <trkpt lat="44.60295" lon="0.97167">
        <ele>160.68</ele>
        <time>2018-10-21T12:17:03Z</time>
      </trkpt>
      <trkpt lat="44.60295" lon="0.97168">
        <ele>160.2</ele>
        <time>2018-10-21T12:17:33Z</time>
      </trkpt>
      <trkpt lat="44.60295" lon="0.97168">
        <ele>160.2</ele>
        <time>2018-10-21T12:18:03Z</time>
      </trkpt>
      <trkpt lat="44.60294" lon="0.97169">
        <ele>160.68</ele>
        <time>2018-10-21T12:18:33Z</time>
      </trkpt>
      <trkpt lat="44.60295" lon="0.97168">
        <ele>160.68</ele>
        <time>2018-10-21T12:19:03Z</time>
      </trkpt>
      <trkpt lat="44.60197" lon="0.97135">
        <ele>157.31</ele>
        <time>2018-10-21T12:19:33Z</time>
      </trkpt>
      <trkpt lat="44.60136" lon="0.97076">
        <ele>149.62</ele>
        <time>2018-10-21T12:20:03Z</time>
      </trkpt>
      <trkpt lat="44.6006" lon="0.97038">
        <ele>144.82</ele>
        <time>2018-10-21T12:20:33Z</time>
      </trkpt>
      <trkpt lat="44.60004" lon="0.9701">
        <ele>142.41</ele>
        <time>2018-10-21T12:21:03Z</time>
      </trkpt>
      <trkpt lat="44.60004" lon="0.97001">
        <ele>142.89</ele>
        <time>2018-10-21T12:21:33Z</time>
      </trkpt>
      <trkpt lat="44.60011" lon="0.96939">
        <ele>141.45</ele>
        <time>2018-10-21T12:22:03Z</time>
      </trkpt>
      <trkpt lat="44.59994" lon="0.96958">
        <ele>144.34</ele>
        <time>2018-10-21T12:22:33Z</time>
      </trkpt>
      <trkpt lat="44.59945" lon="0.96946">
        <ele>155.39</ele>
        <time>2018-10-21T12:23:03Z</time>
      </trkpt>
      <trkpt lat="44.59917" lon="0.96965">
        <ele>162.12</ele>
        <time>2018-10-21T12:23:33Z</time>
      </trkpt>
      <trkpt lat="44.59891" lon="0.96996">
        <ele>166.93</ele>
        <time>2018-10-21T12:24:03Z</time>
      </trkpt>
      <trkpt lat="44.59861" lon="0.96996">
        <ele>172.21</ele>
        <time>2018-10-21T12:24:33Z</time>
      </trkpt>
      <trkpt lat="44.59865" lon="0.96972">
        <ele>174.14</ele>
        <time>2018-10-21T12:25:03Z</time>
      </trkpt>
      <trkpt lat="44.59865" lon="0.96976">
        <ele>174.62</ele>
        <time>2018-10-21T12:25:33Z</time>
      </trkpt>
      <trkpt lat="44.59868" lon="0.96981">
        <ele>174.62</ele>
        <time>2018-10-21T12:26:03Z</time>
      </trkpt>
      <trkpt lat="44.59867" lon="0.96982">
        <ele>174.62</ele>
        <time>2018-10-21T12:26:33Z</time>
      </trkpt>
      <trkpt lat="44.59866" lon="0.96977">
        <ele>174.62</ele>
        <time>2018-10-21T12:27:03Z</time>
      </trkpt>
      <trkpt lat="44.59869" lon="0.96974">
        <ele>174.14</ele>
        <time>2018-10-21T12:27:33Z</time>
      </trkpt>
      <trkpt lat="44.59874" lon="0.96972">
        <ele>174.14</ele>
        <time>2018-10-21T12:28:03Z</time>
      </trkpt>
      <trkpt lat="44.59873" lon="0.96972">
        <ele>174.14</ele>
        <time>2018-10-21T12:28:33Z</time>
      </trkpt>
      <trkpt lat="44.59873" lon="0.96969">
        <ele>175.1</ele>
        <time>2018-10-21T12:29:03Z</time>
      </trkpt>
      <trkpt lat="44.5987" lon="0.96966">
        <ele>174.62</ele>
        <time>2018-10-21T12:29:33Z</time>
      </trkpt>
      <trkpt lat="44.59868" lon="0.96969">
        <ele>175.1</ele>
        <time>2018-10-21T12:30:03Z</time>
      </trkpt>
      <trkpt lat="44.59867" lon="0.96967">
        <ele>175.58</ele>
        <time>2018-10-21T12:30:33Z</time>
      </trkpt>
      <trkpt lat="44.59869" lon="0.96974">
        <ele>175.58</ele>
        <time>2018-10-21T12:31:03Z</time>
      </trkpt>
      <trkpt lat="44.59873" lon="0.96973">
        <ele>176.06</ele>
        <time>2018-10-21T12:31:33Z</time>
      </trkpt>
      <trkpt lat="44.59869" lon="0.96974">
        <ele>176.06</ele>
        <time>2018-10-21T12:32:03Z</time>
      </trkpt>
      <trkpt lat="44.59863" lon="0.96972">
        <ele>176.06</ele>
        <time>2018-10-21T12:32:33Z</time>
      </trkpt>
      <trkpt lat="44.59862" lon="0.96974">
        <ele>176.54</ele>
        <time>2018-10-21T12:33:03Z</time>
      </trkpt>
      <trkpt lat="44.59862" lon="0.96974">
        <ele>176.54</ele>
        <time>2018-10-21T12:33:33Z</time>
      </trkpt>
      <trkpt lat="44.59866" lon="0.96969">
        <ele>177.02</ele>
        <time>2018-10-21T12:34:03Z</time>
      </trkpt>
      <trkpt lat="44.59869" lon="0.96969">
        <ele>176.54</ele>
        <time>2018-10-21T12:34:33Z</time>
      </trkpt>
      <trkpt lat="44.59867" lon="0.96968">
        <ele>176.54</ele>
        <time>2018-10-21T12:35:03Z</time>
      </trkpt>
      <trkpt lat="44.59865" lon="0.96967">
        <ele>177.02</ele>
        <time>2018-10-21T12:35:33Z</time>
      </trkpt>
      <trkpt lat="44.59866" lon="0.96972">
        <ele>177.5</ele>
        <time>2018-10-21T12:36:03Z</time>
      </trkpt>
      <trkpt lat="44.59866" lon="0.96972">
        <ele>177.02</ele>
        <time>2018-10-21T12:36:33Z</time>
      </trkpt>
      <trkpt lat="44.59864" lon="0.9697">
        <ele>177.02</ele>
        <time>2018-10-21T12:37:03Z</time>
      </trkpt>
      <trkpt lat="44.59868" lon="0.96967">
        <ele>177.98</ele>
        <time>2018-10-21T12:37:33Z</time>
      </trkpt>
      <trkpt lat="44.5987" lon="0.96965">
        <ele>177.5</ele>
        <time>2018-10-21T12:38:03Z</time>
      </trkpt>
      <trkpt lat="44.59871" lon="0.96967">
        <ele>177.5</ele>
        <time>2018-10-21T12:38:33Z</time>
      </trkpt>
      <trkpt lat="44.59869" lon="0.96973">
        <ele>177.98</ele>
        <time>2018-10-21T12:39:03Z</time>
      </trkpt>
      <trkpt lat="44.59869" lon="0.96976">
        <ele>177.5</ele>
        <time>2018-10-21T12:39:33Z</time>
      </trkpt>
      <trkpt lat="44.59868" lon="0.96976">
        <ele>177.98</ele>
        <time>2018-10-21T12:40:03Z</time>
      </trkpt>
      <trkpt lat="44.59865" lon="0.96971">
        <ele>177.98</ele>
        <time>2018-10-21T12:40:33Z</time>
      </trkpt>
      <trkpt lat="44.59866" lon="0.96974">
        <ele>177.5</ele>
        <time>2018-10-21T12:41:03Z</time>
      </trkpt>
      <trkpt lat="44.59865" lon="0.96972">
        <ele>177.5</ele>
        <time>2018-10-21T12:41:33Z</time>
      </trkpt>
      <trkpt lat="44.59865" lon="0.96972">
        <ele>177.98</ele>
        <time>2018-10-21T12:42:03Z</time>
      </trkpt>
      <trkpt lat="44.59866" lon="0.96971">
        <ele>177.98</ele>
        <time>2018-10-21T12:42:33Z</time>
      </trkpt>
      <trkpt lat="44.59865" lon="0.96972">
        <ele>177.98</ele>
        <time>2018-10-21T12:43:03Z</time>
      </trkpt>
      <trkpt lat="44.59865" lon="0.96969">
        <ele>177.98</ele>
        <time>2018-10-21T12:43:33Z</time>
      </trkpt>
      <trkpt lat="44.59865" lon="0.96973">
        <ele>177.98</ele>
        <time>2018-10-21T12:44:03Z</time>
      </trkpt>
      <trkpt lat="44.59867" lon="0.96971">
        <ele>178.46</ele>
        <time>2018-10-21T12:44:33Z</time>
      </trkpt>
      <trkpt lat="44.5987" lon="0.96973">
        <ele>177.98</ele>
        <time>2018-10-21T12:45:03Z</time>
      </trkpt>
      <trkpt lat="44.59868" lon="0.96973">
        <ele>177.5</ele>
        <time>2018-10-21T12:45:33Z</time>
      </trkpt>
      <trkpt lat="44.59869" lon="0.96971">
        <ele>177.5</ele>
        <time>2018-10-21T12:46:03Z</time>
      </trkpt>
      <trkpt lat="44.59871" lon="0.96969">
        <ele>177.98</ele>
        <time>2018-10-21T12:46:33Z</time>
      </trkpt>
      <trkpt lat="44.59867" lon="0.9697">
        <ele>177.5</ele>
        <time>2018-10-21T12:47:03Z</time>
      </trkpt>
      <trkpt lat="44.59864" lon="0.96973">
        <ele>177.98</ele>
        <time>2018-10-21T12:47:33Z</time>
      </trkpt>
      <trkpt lat="44.59867" lon="0.96969">
        <ele>177.02</ele>
        <time>2018-10-21T12:48:03Z</time>
      </trkpt>
      <trkpt lat="44.59868" lon="0.96972">
        <ele>177.5</ele>
        <time>2018-10-21T12:48:33Z</time>
      </trkpt>
      <trkpt lat="44.59872" lon="0.9697">
        <ele>177.02</ele>
        <time>2018-10-21T12:49:03Z</time>
      </trkpt>
      <trkpt lat="44.5987" lon="0.96969">
        <ele>177.98</ele>
        <time>2018-10-21T12:49:33Z</time>
      </trkpt>
      <trkpt lat="44.59868" lon="0.9697">
        <ele>177.98</ele>
        <time>2018-10-21T12:50:03Z</time>
      </trkpt>
      <trkpt lat="44.59867" lon="0.96967">
        <ele>177.5</ele>
        <time>2018-10-21T12:50:33Z</time>
      </trkpt>
      <trkpt lat="44.59866" lon="0.96969">
        <ele>177.98</ele>
        <time>2018-10-21T12:51:03Z</time>
      </trkpt>
      <trkpt lat="44.59868" lon="0.96969">
        <ele>177.5</ele>
        <time>2018-10-21T12:51:33Z</time>
      </trkpt>
      <trkpt lat="44.59865" lon="0.96968">
        <ele>177.5</ele>
        <time>2018-10-21T12:52:03Z</time>
      </trkpt>
      <trkpt lat="44.59863" lon="0.9697">
        <ele>177.02</ele>
        <time>2018-10-21T12:52:33Z</time>
      </trkpt>
      <trkpt lat="44.59866" lon="0.96967">
        <ele>176.54</ele>
        <time>2018-10-21T12:53:03Z</time>
      </trkpt>
      <trkpt lat="44.59868" lon="0.96968">
        <ele>177.02</ele>
        <time>2018-10-21T12:53:33Z</time>
      </trkpt>
      <trkpt lat="44.5987" lon="0.96966">
        <ele>176.54</ele>
        <time>2018-10-21T12:54:03Z</time>
      </trkpt>
      <trkpt lat="44.59867" lon="0.96967">
        <ele>177.5</ele>
        <time>2018-10-21T12:54:33Z</time>
      </trkpt>
      <trkpt lat="44.59862" lon="0.96969">
        <ele>177.5</ele>
        <time>2018-10-21T12:55:03Z</time>
      </trkpt>
      <trkpt lat="44.59863" lon="0.96969">
        <ele>177.98</ele>
        <time>2018-10-21T12:55:33Z</time>
      </trkpt>
      <trkpt lat="44.59866" lon="0.96969">
        <ele>177.98</ele>
        <time>2018-10-21T12:56:03Z</time>
      </trkpt>
      <trkpt lat="44.59866" lon="0.96969">
        <ele>177.98</ele>
        <time>2018-10-21T12:56:33Z</time>
      </trkpt>
      <trkpt lat="44.59867" lon="0.96969">
        <ele>177.98</ele>
        <time>2018-10-21T12:57:03Z</time>
      </trkpt>
      <trkpt lat="44.59866" lon="0.96968">
        <ele>178.46</ele>
        <time>2018-10-21T12:57:33Z</time>
      </trkpt>
      <trkpt lat="44.59864" lon="0.96969">
        <ele>177.98</ele>
        <time>2018-10-21T12:58:03Z</time>
      </trkpt>
      <trkpt lat="44.59865" lon="0.96973">
        <ele>178.94</ele>
        <time>2018-10-21T12:58:33Z</time>
      </trkpt>
      <trkpt lat="44.59864" lon="0.96974">
        <ele>178.94</ele>
        <time>2018-10-21T12:59:03Z</time>
      </trkpt>
      <trkpt lat="44.59865" lon="0.96973">
        <ele>178.46</ele>
        <time>2018-10-21T12:59:33Z</time>
      </trkpt>
      <trkpt lat="44.59863" lon="0.96973">
        <ele>177.98</ele>
        <time>2018-10-21T13:00:03Z</time>
      </trkpt>
      <trkpt lat="44.59863" lon="0.96974">
        <ele>178.46</ele>
        <time>2018-10-21T13:00:33Z</time>
      </trkpt>
      <trkpt lat="44.59863" lon="0.96973">
        <ele>178.46</ele>
        <time>2018-10-21T13:01:03Z</time>
      </trkpt>
      <trkpt lat="44.59866" lon="0.96968">
        <ele>178.46</ele>
        <time>2018-10-21T13:01:33Z</time>
      </trkpt>
      <trkpt lat="44.59862" lon="0.96968">
        <ele>178.94</ele>
        <time>2018-10-21T13:02:03Z</time>
      </trkpt>
      <trkpt lat="44.59862" lon="0.96965">
        <ele>178.46</ele>
        <time>2018-10-21T13:02:33Z</time>
      </trkpt>
      <trkpt lat="44.59827" lon="0.96921">
        <ele>176.54</ele>
        <time>2018-10-21T13:03:03Z</time>
      </trkpt>
      <trkpt lat="44.59754" lon="0.96847">
        <ele>177.02</ele>
        <time>2018-10-21T13:03:33Z</time>
      </trkpt>
      <trkpt lat="44.59652" lon="0.96747">
        <ele>170.29</ele>
        <time>2018-10-21T13:04:03Z</time>
      </trkpt>
      <trkpt lat="44.59599" lon="0.96645">
        <ele>159.24</ele>
        <time>2018-10-21T13:04:33Z</time>
      </trkpt>
      <trkpt lat="44.59622" lon="0.96649">
        <ele>155.87</ele>
        <time>2018-10-21T13:05:03Z</time>
      </trkpt>
      <trkpt lat="44.5954" lon="0.96656">
        <ele>144.82</ele>
        <time>2018-10-21T13:05:33Z</time>
      </trkpt>
      <trkpt lat="44.59422" lon="0.96747">
        <ele>142.89</ele>
        <time>2018-10-21T13:06:03Z</time>
      </trkpt>
      <trkpt lat="44.59267" lon="0.9684">
        <ele>136.64</ele>
        <time>2018-10-21T13:06:33Z</time>
      </trkpt>
      <trkpt lat="44.59222" lon="0.96723">
        <ele>121.6</ele>
      </trkpt>
      <trkpt lat="44.59225" lon="0.96702">
        <ele>131.36</ele>
        <time>2018-10-21T13:07:33Z</time>
      </trkpt>
      <trkpt lat="44.59226" lon="0.96675">
        <ele>131.36</ele>
        <time>2018-10-21T13:08:03Z</time>
      </trkpt>
      <trkpt lat="44.59225" lon="0.96673">
        <ele>130.4</ele>
        <time>2018-10-21T13:08:33Z</time>
      </trkpt>
      <trkpt lat="44.59224" lon="0.96675">
        <ele>130.88</ele>
        <time>2018-10-21T13:09:03Z</time>
      </trkpt>
      <trkpt lat="44.59225" lon="0.96672">
        <ele>130.4</ele>
        <time>2018-10-21T13:09:33Z</time>
      </trkpt>
      <trkpt lat="44.59227" lon="0.96673">
        <ele>130.4</ele>
        <time>2018-10-21T13:10:03Z</time>
      </trkpt>
      <trkpt lat="44.59227" lon="0.96674">
        <ele>130.4</ele>
        <time>2018-10-21T13:10:33Z</time>
      </trkpt>
      <trkpt lat="44.59227" lon="0.96675">
        <ele>129.92</ele>
        <time>2018-10-21T13:11:03Z</time>
      </trkpt>
      <trkpt lat="44.59228" lon="0.96674">
        <ele>130.4</ele>
        <time>2018-10-21T13:11:33Z</time>
      </trkpt>
      <trkpt lat="44.59224" lon="0.96674">
        <ele>129.92</ele>
        <time>2018-10-21T13:12:03Z</time>
      </trkpt>
      <trkpt lat="44.59222" lon="0.96673">
        <ele>129.92</ele>
        <time>2018-10-21T13:12:33Z</time>
      </trkpt>
      <trkpt lat="44.59224" lon="0.96674">
        <ele>130.88</ele>
        <time>2018-10-21T13:13:03Z</time>
      </trkpt>
      <trkpt lat="44.59225" lon="0.96675">
        <ele>130.88</ele>
        <time>2018-10-21T13:13:33Z</time>
      </trkpt>
      <trkpt lat="44.59226" lon="0.96643">
        <ele>131.36</ele>
        <time>2018-10-21T13:14:03Z</time>
      </trkpt>
      <trkpt lat="44.59232" lon="0.96552">
        <ele>133.28</ele>
        <time>2018-10-21T13:14:33Z</time>
      </trkpt>
      <trkpt lat="44.5924" lon="0.96437">
        <ele>133.9</ele>
      </trkpt>
      <trkpt lat="44.59242" lon="0.96436">
        <ele>134.72</ele>
        <time>2018-10-21T13:20:03Z</time>
      </trkpt>
      <trkpt lat="44.59324" lon="0.96372">
        <ele>136.64</ele>
        <time>2018-10-21T13:20:33Z</time>
      </trkpt>
      <trkpt lat="44.59388" lon="0.9625">
        <ele>138.09</ele>
        <time>2018-10-21T13:21:03Z</time>
      </trkpt>
      <trkpt lat="44.59405" lon="0.96113">
        <ele>139.05</ele>
        <time>2018-10-21T13:21:33Z</time>
      </trkpt>
      <trkpt lat="44.59407" lon="0.96101">
        <ele>139.05</ele>
        <time>2018-10-21T13:22:33Z</time>
      </trkpt>
      <trkpt lat="44.59402" lon="0.96165">
        <ele>138.09</ele>
        <time>2018-10-21T13:23:03Z</time>
      </trkpt>
      <trkpt lat="44.5938" lon="0.96199">
        <ele>137.61</ele>
        <time>2018-10-21T13:23:33Z</time>
      </trkpt>
      <trkpt lat="44.59377" lon="0.96201">
        <ele>137.61</ele>
        <time>2018-10-21T13:24:03Z</time>
      </trkpt>
      <trkpt lat="44.59376" lon="0.96196">
        <ele>137.61</ele>
        <time>2018-10-21T13:24:33Z</time>
      </trkpt>
      <trkpt lat="44.59377" lon="0.96146">
        <ele>138.57</ele>
        <time>2018-10-21T13:25:03Z</time>
      </trkpt>
      <trkpt lat="44.59356" lon="0.96053">
        <ele>140.49</ele>
        <time>2018-10-21T13:25:33Z</time>
      </trkpt>
      <trkpt lat="44.593" lon="0.95983">
        <ele>142.89</ele>
        <time>2018-10-21T13:26:03Z</time>
      </trkpt>
      <trkpt lat="44.59289" lon="0.95906">
        <ele>146.26</ele>
        <time>2018-10-21T13:26:33Z</time>
      </trkpt>
      <trkpt lat="44.59282" lon="0.95846">
        <ele>151.54</ele>
        <time>2018-10-21T13:27:03Z</time>
      </trkpt>
      <trkpt lat="44.59276" lon="0.95779">
        <ele>156.83</ele>
        <time>2018-10-21T13:27:33Z</time>
      </trkpt>
      <trkpt lat="44.59243" lon="0.95726">
        <ele>160.2</ele>
        <time>2018-10-21T13:28:03Z</time>
      </trkpt>
      <trkpt lat="44.59197" lon="0.95684">
        <ele>162.6</ele>
        <time>2018-10-21T13:28:33Z</time>
      </trkpt>
      <trkpt lat="44.59179" lon="0.95624">
        <ele>169.33</ele>
        <time>2018-10-21T13:29:03Z</time>
      </trkpt>
      <trkpt lat="44.59159" lon="0.95567">
        <ele>173.17</ele>
        <time>2018-10-21T13:29:33Z</time>
      </trkpt>
      <trkpt lat="44.59111" lon="0.95515">
        <ele>173.66</ele>
        <time>2018-10-21T13:30:03Z</time>
      </trkpt>
      <trkpt lat="44.59118" lon="0.95548">
        <ele>182.31</ele>
        <time>2018-10-21T13:30:33Z</time>
      </trkpt>
      <trkpt lat="44.59128" lon="0.95594">
        <ele>188.56</ele>
        <time>2018-10-21T13:31:03Z</time>
      </trkpt>
      <trkpt lat="44.59111" lon="0.95616">
        <ele>193.36</ele>
        <time>2018-10-21T13:31:33Z</time>
      </trkpt>
      <trkpt lat="44.59087" lon="0.95628">
        <ele>198.17</ele>
        <time>2018-10-21T13:32:03Z</time>
      </trkpt>
      <trkpt lat="44.5904" lon="0.95626">
        <ele>203.46</ele>
        <time>2018-10-21T13:32:33Z</time>
      </trkpt>
      <trkpt lat="44.59001" lon="0.95612">
        <ele>210.19</ele>
        <time>2018-10-21T13:33:03Z</time>
      </trkpt>
      <trkpt lat="44.58968" lon="0.95582">
        <ele>214.99</ele>
        <time>2018-10-21T13:33:33Z</time>
      </trkpt>
      <trkpt lat="44.58934" lon="0.95557">
        <ele>220.76</ele>
        <time>2018-10-21T13:34:03Z</time>
      </trkpt>
      <trkpt lat="44.58905" lon="0.95525">
        <ele>225.09</ele>
        <time>2018-10-21T13:34:33Z</time>
      </trkpt>
      <trkpt lat="44.58882" lon="0.95549">
        <ele>230.37</ele>
        <time>2018-10-21T13:35:03Z</time>
      </trkpt>
      <trkpt lat="44.58867" lon="0.95559">
        <ele>230.85</ele>
        <time>2018-10-21T13:35:33Z</time>
      </trkpt>
      <trkpt lat="44.58862" lon="0.95566">
        <ele>230.37</ele>
        <time>2018-10-21T13:36:03Z</time>
      </trkpt>
      <trkpt lat="44.5886" lon="0.95561">
        <ele>231.33</ele>
        <time>2018-10-21T13:36:33Z</time>
      </trkpt>
      <trkpt lat="44.5886" lon="0.95559">
        <ele>231.33</ele>
        <time>2018-10-21T13:37:03Z</time>
      </trkpt>
      <trkpt lat="44.58862" lon="0.95559">
        <ele>230.37</ele>
        <time>2018-10-21T13:37:33Z</time>
      </trkpt>
      <trkpt lat="44.58858" lon="0.95563">
        <ele>230.85</ele>
        <time>2018-10-21T13:38:03Z</time>
      </trkpt>
      <trkpt lat="44.58856" lon="0.95562">
        <ele>230.85</ele>
        <time>2018-10-21T13:38:33Z</time>
      </trkpt>
      <trkpt lat="44.58862" lon="0.95561">
        <ele>231.81</ele>
        <time>2018-10-21T13:39:03Z</time>
      </trkpt>
      <trkpt lat="44.5886" lon="0.95564">
        <ele>231.81</ele>
        <time>2018-10-21T13:39:33Z</time>
      </trkpt>
      <trkpt lat="44.58856" lon="0.95564">
        <ele>231.81</ele>
        <time>2018-10-21T13:40:03Z</time>
      </trkpt>
      <trkpt lat="44.5886" lon="0.95562">
        <ele>231.81</ele>
        <time>2018-10-21T13:40:33Z</time>
      </trkpt>
      <trkpt lat="44.58857" lon="0.95562">
        <ele>232.3</ele>
        <time>2018-10-21T13:41:03Z</time>
      </trkpt>
      <trkpt lat="44.58855" lon="0.95559">
        <ele>232.3</ele>
        <time>2018-10-21T13:41:33Z</time>
      </trkpt>
      <trkpt lat="44.58858" lon="0.95558">
        <ele>232.3</ele>
        <time>2018-10-21T13:42:03Z</time>
      </trkpt>
      <trkpt lat="44.58859" lon="0.95558">
        <ele>232.78</ele>
        <time>2018-10-21T13:42:33Z</time>
      </trkpt>
      <trkpt lat="44.58861" lon="0.95563">
        <ele>233.26</ele>
        <time>2018-10-21T13:43:03Z</time>
      </trkpt>
      <trkpt lat="44.58808" lon="0.95552">
        <ele>232.3</ele>
        <time>2018-10-21T13:43:33Z</time>
      </trkpt>
      <trkpt lat="44.58746" lon="0.95551">
        <ele>232.78</ele>
        <time>2018-10-21T13:44:03Z</time>
      </trkpt>
      <trkpt lat="44.58683" lon="0.95534">
        <ele>236.62</ele>
        <time>2018-10-21T13:44:33Z</time>
      </trkpt>
      <trkpt lat="44.58637" lon="0.95512">
        <ele>240.47</ele>
        <time>2018-10-21T13:45:03Z</time>
      </trkpt>
      <trkpt lat="44.586" lon="0.95482">
        <ele>244.79</ele>
        <time>2018-10-21T13:45:33Z</time>
      </trkpt>
      <trkpt lat="44.58558" lon="0.95433">
        <ele>244.79</ele>
        <time>2018-10-21T13:46:03Z</time>
      </trkpt>
      <trkpt lat="44.58478" lon="0.95413">
        <ele>242.39</ele>
        <time>2018-10-21T13:46:33Z</time>
      </trkpt>
      <trkpt lat="44.58446" lon="0.95449">
        <ele>243.83</ele>
        <time>2018-10-21T13:47:03Z</time>
      </trkpt>
      <trkpt lat="44.58393" lon="0.95414">
        <ele>246.23</ele>
        <time>2018-10-21T13:47:33Z</time>
      </trkpt>
      <trkpt lat="44.5837" lon="0.95268">
        <ele>244.31</ele>
        <time>2018-10-21T13:48:03Z</time>
      </trkpt>
      <trkpt lat="44.58341" lon="0.95123">
        <ele>249.12</ele>
        <time>2018-10-21T13:48:33Z</time>
      </trkpt>
      <trkpt lat="44.58342" lon="0.95026">
        <ele>253.93</ele>
        <time>2018-10-21T13:49:03Z</time>
      </trkpt>
      <trkpt lat="44.58366" lon="0.94878">
        <ele>249.6</ele>
        <time>2018-10-21T13:49:33Z</time>
      </trkpt>
      <trkpt lat="44.58341" lon="0.94607">
        <ele>239.02</ele>
        <time>2018-10-21T13:50:03Z</time>
      </trkpt>
      <trkpt lat="44.58438" lon="0.94415">
        <ele>238.54</ele>
        <time>2018-10-21T13:50:33Z</time>
      </trkpt>
      <trkpt lat="44.585" lon="0.94294">
        <ele>240.95</ele>
        <time>2018-10-21T13:51:03Z</time>
      </trkpt>
      <trkpt lat="44.58589" lon="0.94135">
        <ele>234.22</ele>
        <time>2018-10-21T13:51:33Z</time>
      </trkpt>
      <trkpt lat="44.58682" lon="0.9396">
        <ele>232.78</ele>
        <time>2018-10-21T13:52:03Z</time>
      </trkpt>
      <trkpt lat="44.58759" lon="0.93848">
        <ele>234.22</ele>
        <time>2018-10-21T13:52:33Z</time>
      </trkpt>
      <trkpt lat="44.58847" lon="0.93791">
        <ele>236.14</ele>
        <time>2018-10-21T13:53:03Z</time>
      </trkpt>
      <trkpt lat="44.58936" lon="0.93719">
        <ele>236.62</ele>
        <time>2018-10-21T13:53:33Z</time>
      </trkpt>
      <trkpt lat="44.59025" lon="0.93626">
        <ele>239.51</ele>
        <time>2018-10-21T13:54:03Z</time>
      </trkpt>
      <trkpt lat="44.59094" lon="0.93519">
        <ele>243.83</ele>
        <time>2018-10-21T13:54:33Z</time>
      </trkpt>
      <trkpt lat="44.59167" lon="0.9331">
        <ele>236.62</ele>
        <time>2018-10-21T13:55:03Z</time>
      </trkpt>
      <trkpt lat="44.59188" lon="0.93116">
        <ele>238.54</ele>
        <time>2018-10-21T13:55:33Z</time>
      </trkpt>
      <trkpt lat="44.59196" lon="0.92987">
        <ele>243.83</ele>
        <time>2018-10-21T13:56:03Z</time>
      </trkpt>
      <trkpt lat="44.59202" lon="0.92888">
        <ele>247.68</ele>
        <time>2018-10-21T13:56:33Z</time>
      </trkpt>
      <trkpt lat="44.59178" lon="0.92867">
        <ele>249.12</ele>
        <time>2018-10-21T13:57:03Z</time>
      </trkpt>
      <trkpt lat="44.59175" lon="0.92866">
        <ele>248.16</ele>
        <time>2018-10-21T13:57:33Z</time>
      </trkpt>
      <trkpt lat="44.59174" lon="0.92866">
        <ele>248.16</ele>
        <time>2018-10-21T13:58:03Z</time>
      </trkpt>
      <trkpt lat="44.59176" lon="0.92865">
        <ele>248.16</ele>
        <time>2018-10-21T13:58:33Z</time>
      </trkpt>
      <trkpt lat="44.59178" lon="0.92865">
        <ele>248.16</ele>
        <time>2018-10-21T13:59:03Z</time>
      </trkpt>
      <trkpt lat="44.59163" lon="0.92862">
        <ele>247.68</ele>
        <time>2018-10-21T13:59:33Z</time>
      </trkpt>
      <trkpt lat="44.59127" lon="0.92812">
        <ele>249.6</ele>
        <time>2018-10-21T14:00:03Z</time>
      </trkpt>
      <trkpt lat="44.59148" lon="0.92764">
        <ele>249.6</ele>
        <time>2018-10-21T14:00:33Z</time>
      </trkpt>
      <trkpt lat="44.59108" lon="0.92782">
        <ele>250.08</ele>
        <time>2018-10-21T14:01:03Z</time>
      </trkpt>
      <trkpt lat="44.59076" lon="0.92758">
        <ele>250.56</ele>
        <time>2018-10-21T14:01:33Z</time>
      </trkpt>
      <trkpt lat="44.59074" lon="0.92755">
        <ele>250.08</ele>
        <time>2018-10-21T14:02:03Z</time>
      </trkpt>
      <trkpt lat="44.59074" lon="0.92754">
        <ele>250.56</ele>
        <time>2018-10-21T14:02:33Z</time>
      </trkpt>
      <trkpt lat="44.5902" lon="0.92738">
        <ele>250.08</ele>
        <time>2018-10-21T14:03:03Z</time>
      </trkpt>
      <trkpt lat="44.59007" lon="0.9267">
        <ele>250.56</ele>
        <time>2018-10-21T14:03:33Z</time>
      </trkpt>
      <trkpt lat="44.59018" lon="0.92554">
        <ele>253.44</ele>
        <time>2018-10-21T14:04:03Z</time>
      </trkpt>
      <trkpt lat="44.58965" lon="0.92439">
        <ele>250.56</ele>
        <time>2018-10-21T14:04:33Z</time>
      </trkpt>
      <trkpt lat="44.58882" lon="0.92409">
        <ele>252.96</ele>
        <time>2018-10-21T14:05:03Z</time>
      </trkpt>
      <trkpt lat="44.58799" lon="0.92445">
        <ele>253.93</ele>
        <time>2018-10-21T14:05:33Z</time>
      </trkpt>
      <trkpt lat="44.58694" lon="0.92465">
        <ele>251.52</ele>
        <time>2018-10-21T14:06:03Z</time>
      </trkpt>
      <trkpt lat="44.58642" lon="0.92404">
        <ele>253.93</ele>
        <time>2018-10-21T14:06:33Z</time>
      </trkpt>
      <trkpt lat="44.58619" lon="0.92288">
        <ele>252.48</ele>
        <time>2018-10-21T14:07:03Z</time>
      </trkpt>
      <trkpt lat="44.58569" lon="0.92135">
        <ele>250.08</ele>
        <time>2018-10-21T14:07:33Z</time>
      </trkpt>
      <trkpt lat="44.5844" lon="0.92016">
        <ele>246.23</ele>
        <time>2018-10-21T14:08:03Z</time>
      </trkpt>
      <trkpt lat="44.58355" lon="0.9188">
        <ele>246.23</ele>
        <time>2018-10-21T14:08:33Z</time>
      </trkpt>
      <trkpt lat="44.58312" lon="0.91776">
        <ele>246.23</ele>
        <time>2018-10-21T14:09:03Z</time>
      </trkpt>
      <trkpt lat="44.58339" lon="0.91741">
        <ele>245.75</ele>
        <time>2018-10-21T14:09:33Z</time>
      </trkpt>
      <trkpt lat="44.58333" lon="0.91751">
        <ele>246.23</ele>
        <time>2018-10-21T14:10:03Z</time>
      </trkpt>
      <trkpt lat="44.58334" lon="0.9175">
        <ele>246.23</ele>
        <time>2018-10-21T14:10:33Z</time>
      </trkpt>
      <trkpt lat="44.58333" lon="0.91748">
        <ele>246.23</ele>
        <time>2018-10-21T14:11:03Z</time>
      </trkpt>
      <trkpt lat="44.58331" lon="0.91749">
        <ele>245.75</ele>
        <time>2018-10-21T14:11:33Z</time>
      </trkpt>
      <trkpt lat="44.58331" lon="0.9175">
        <ele>246.72</ele>
        <time>2018-10-21T14:12:03Z</time>
      </trkpt>
      <trkpt lat="44.5833" lon="0.91749">
        <ele>246.23</ele>
        <time>2018-10-21T14:12:33Z</time>
      </trkpt>
      <trkpt lat="44.5835" lon="0.91729">
        <ele>244.79</ele>
        <time>2018-10-21T14:13:03Z</time>
      </trkpt>
      <trkpt lat="44.58489" lon="0.91715">
        <ele>234.7</ele>
        <time>2018-10-21T14:13:33Z</time>
      </trkpt>
      <trkpt lat="44.58554" lon="0.91621">
        <ele>240.95</ele>
        <time>2018-10-21T14:14:03Z</time>
      </trkpt>
      <trkpt lat="44.58594" lon="0.91569">
        <ele>244.31</ele>
        <time>2018-10-21T14:14:33Z</time>
      </trkpt>
      <trkpt lat="44.58602" lon="0.91512">
        <ele>242.87</ele>
        <time>2018-10-21T14:15:03Z</time>
      </trkpt>
      <trkpt lat="44.58619" lon="0.91506">
        <ele>241.91</ele>
        <time>2018-10-21T14:15:33Z</time>
      </trkpt>
      <trkpt lat="44.58752" lon="0.91351">
        <ele>231.33</ele>
        <time>2018-10-21T14:16:03Z</time>
      </trkpt>
      <trkpt lat="44.58835" lon="0.91151">
        <ele>218.84</ele>
        <time>2018-10-21T14:16:33Z</time>
      </trkpt>
      <trkpt lat="44.58915" lon="0.90938">
        <ele>209.7</ele>
        <time>2018-10-21T14:17:03Z</time>
      </trkpt>
      <trkpt lat="44.59019" lon="0.90847">
        <ele>199.61</ele>
        <time>2018-10-21T14:17:33Z</time>
      </trkpt>
      <trkpt lat="44.59018" lon="0.90842">
        <ele>199.61</ele>
        <time>2018-10-21T14:18:03Z</time>
      </trkpt>
      <trkpt lat="44.59026" lon="0.90788">
        <ele>201.05</ele>
        <time>2018-10-21T14:18:33Z</time>
      </trkpt>
      <trkpt lat="44.59056" lon="0.90721">
        <ele>205.86</ele>
        <time>2018-10-21T14:19:03Z</time>
      </trkpt>
      <trkpt lat="44.59078" lon="0.90642">
        <ele>210.67</ele>
        <time>2018-10-21T14:19:33Z</time>
      </trkpt>
      <trkpt lat="44.59074" lon="0.90575">
        <ele>216.91</ele>
        <time>2018-10-21T14:20:03Z</time>
      </trkpt>
      <trkpt lat="44.59056" lon="0.90489">
        <ele>221.72</ele>
        <time>2018-10-21T14:20:33Z</time>
      </trkpt>
      <trkpt lat="44.59025" lon="0.90416">
        <ele>227.97</ele>
        <time>2018-10-21T14:21:03Z</time>
      </trkpt>
      <trkpt lat="44.58984" lon="0.90378">
        <ele>231.81</ele>
        <time>2018-10-21T14:21:33Z</time>
      </trkpt>
      <trkpt lat="44.58945" lon="0.90329">
        <ele>235.66</ele>
        <time>2018-10-21T14:22:03Z</time>
      </trkpt>
      <trkpt lat="44.58922" lon="0.90252">
        <ele>236.62</ele>
        <time>2018-10-21T14:22:33Z</time>
      </trkpt>
      <trkpt lat="44.5891" lon="0.90154">
        <ele>236.62</ele>
        <time>2018-10-21T14:23:03Z</time>
      </trkpt>
      <trkpt lat="44.58903" lon="0.90015">
        <ele>233.26</ele>
        <time>2018-10-21T14:23:33Z</time>
      </trkpt>
      <trkpt lat="44.58912" lon="0.89834">
        <ele>230.37</ele>
        <time>2018-10-21T14:24:03Z</time>
      </trkpt>
      <trkpt lat="44.58851" lon="0.89696">
        <ele>227.97</ele>
        <time>2018-10-21T14:24:33Z</time>
      </trkpt>
      <trkpt lat="44.58849" lon="0.89666">
        <ele>227.97</ele>
        <time>2018-10-21T14:25:03Z</time>
      </trkpt>
      <trkpt lat="44.58809" lon="0.89636">
        <ele>227.49</ele>
        <time>2018-10-21T14:25:33Z</time>
      </trkpt>
      <trkpt lat="44.58763" lon="0.89593">
        <ele>221.72</ele>
        <time>2018-10-21T14:26:03Z</time>
      </trkpt>
      <trkpt lat="44.58714" lon="0.89498">
        <ele>214.03</ele>
        <time>2018-10-21T14:26:33Z</time>
      </trkpt>
      <trkpt lat="44.58702" lon="0.8935">
        <ele>206.34</ele>
        <time>2018-10-21T14:27:03Z</time>
      </trkpt>
      <trkpt lat="44.58689" lon="0.89218">
        <ele>197.21</ele>
        <time>2018-10-21T14:27:33Z</time>
      </trkpt>
      <trkpt lat="44.58759" lon="0.89038">
        <ele>192.4</ele>
        <time>2018-10-21T14:28:03Z</time>
      </trkpt>
      <trkpt lat="44.58742" lon="0.88864">
        <ele>184.23</ele>
        <time>2018-10-21T14:28:33Z</time>
      </trkpt>
      <trkpt lat="44.58681" lon="0.88709">
        <ele>179.9</ele>
        <time>2018-10-21T14:29:03Z</time>
      </trkpt>
      <trkpt lat="44.5868" lon="0.88696">
        <ele>180.38</ele>
        <time>2018-10-21T14:29:33Z</time>
      </trkpt>
      <trkpt lat="44.5868" lon="0.88696">
        <ele>179.9</ele>
        <time>2018-10-21T14:30:03Z</time>
      </trkpt>
      <trkpt lat="44.58681" lon="0.88696">
        <ele>180.38</ele>
        <time>2018-10-21T14:30:33Z</time>
      </trkpt>
      <trkpt lat="44.58682" lon="0.88697">
        <ele>180.38</ele>
        <time>2018-10-21T14:31:03Z</time>
      </trkpt>
      <trkpt lat="44.58682" lon="0.88696">
        <ele>180.38</ele>
        <time>2018-10-21T14:31:33Z</time>
      </trkpt>
      <trkpt lat="44.58682" lon="0.88695">
        <ele>179.9</ele>
        <time>2018-10-21T14:32:03Z</time>
      </trkpt>
      <trkpt lat="44.58682" lon="0.88696">
        <ele>180.38</ele>
        <time>2018-10-21T14:32:33Z</time>
      </trkpt>
      <trkpt lat="44.58683" lon="0.88696">
        <ele>180.38</ele>
        <time>2018-10-21T14:33:03Z</time>
      </trkpt>
      <trkpt lat="44.58682" lon="0.88695">
        <ele>180.38</ele>
        <time>2018-10-21T14:33:33Z</time>
      </trkpt>
      <trkpt lat="44.58681" lon="0.88694">
        <ele>180.38</ele>
        <time>2018-10-21T14:34:03Z</time>
      </trkpt>
      <trkpt lat="44.58778" lon="0.88545">
        <ele>169.81</ele>
        <time>2018-10-21T14:34:33Z</time>
      </trkpt>
      <trkpt lat="44.58898" lon="0.88312">
        <ele>154.43</ele>
        <time>2018-10-21T14:35:03Z</time>
      </trkpt>
      <trkpt lat="44.58919" lon="0.88279">
        <ele>153.95</ele>
        <time>2018-10-21T14:35:33Z</time>
      </trkpt>
      <trkpt lat="44.58986" lon="0.8826">
        <ele>159.24</ele>
        <time>2018-10-21T14:36:03Z</time>
      </trkpt>
      <trkpt lat="44.59022" lon="0.88221">
        <ele>165.96</ele>
        <time>2018-10-21T14:36:33Z</time>
      </trkpt>
      <trkpt lat="44.58995" lon="0.88181">
        <ele>169.33</ele>
        <time>2018-10-21T14:37:03Z</time>
      </trkpt>
      <trkpt lat="44.58987" lon="0.88164">
        <ele>169.33</ele>
        <time>2018-10-21T14:37:33Z</time>
      </trkpt>
      <trkpt lat="44.58986" lon="0.88164">
        <ele>168.85</ele>
        <time>2018-10-21T14:38:03Z</time>
      </trkpt>
      <trkpt lat="44.58986" lon="0.88164">
        <ele>169.33</ele>
        <time>2018-10-21T14:38:33Z</time>
      </trkpt>
      <trkpt lat="44.58988" lon="0.88169">
        <ele>169.33</ele>
        <time>2018-10-21T14:39:03Z</time>
      </trkpt>
      <trkpt lat="44.58987" lon="0.88172">
        <ele>168.85</ele>
        <time>2018-10-21T14:39:33Z</time>
      </trkpt>
      <trkpt lat="44.58988" lon="0.88173">
        <ele>169.33</ele>
        <time>2018-10-21T14:40:03Z</time>
      </trkpt>
      <trkpt lat="44.58988" lon="0.8817">
        <ele>169.81</ele>
        <time>2018-10-21T14:40:33Z</time>
      </trkpt>
      <trkpt lat="44.58989" lon="0.88169">
        <ele>169.33</ele>
        <time>2018-10-21T14:41:03Z</time>
      </trkpt>
      <trkpt lat="44.58986" lon="0.8817">
        <ele>169.81</ele>
        <time>2018-10-21T14:41:33Z</time>
      </trkpt>
      <trkpt lat="44.58982" lon="0.8817">
        <ele>169.33</ele>
        <time>2018-10-21T14:42:03Z</time>
      </trkpt>
      <trkpt lat="44.5898" lon="0.88172">
        <ele>169.81</ele>
        <time>2018-10-21T14:42:33Z</time>
      </trkpt>
      <trkpt lat="44.58982" lon="0.8817">
        <ele>169.81</ele>
        <time>2018-10-21T14:43:03Z</time>
      </trkpt>
      <trkpt lat="44.5898" lon="0.88171">
        <ele>169.81</ele>
        <time>2018-10-21T14:43:33Z</time>
      </trkpt>
      <trkpt lat="44.58982" lon="0.88169">
        <ele>169.33</ele>
        <time>2018-10-21T14:44:03Z</time>
      </trkpt>
      <trkpt lat="44.58984" lon="0.88168">
        <ele>169.33</ele>
        <time>2018-10-21T14:44:33Z</time>
      </trkpt>
      <trkpt lat="44.58985" lon="0.88168">
        <ele>168.85</ele>
        <time>2018-10-21T14:45:03Z</time>
      </trkpt>
      <trkpt lat="44.58985" lon="0.8817">
        <ele>169.33</ele>
        <time>2018-10-21T14:45:33Z</time>
      </trkpt>
      <trkpt lat="44.58986" lon="0.88172">
        <ele>168.85</ele>
        <time>2018-10-21T14:46:03Z</time>
      </trkpt>
      <trkpt lat="44.58984" lon="0.88177">
        <ele>169.33</ele>
        <time>2018-10-21T14:46:33Z</time>
      </trkpt>
      <trkpt lat="44.58985" lon="0.88166">
        <ele>169.33</ele>
        <time>2018-10-21T14:47:03Z</time>
      </trkpt>
      <trkpt lat="44.58986" lon="0.88166">
        <ele>169.33</ele>
        <time>2018-10-21T14:47:33Z</time>
      </trkpt>
      <trkpt lat="44.58999" lon="0.88154">
        <ele>170.77</ele>
        <time>2018-10-21T14:48:03Z</time>
      </trkpt>
      <trkpt lat="44.59026" lon="0.8813">
        <ele>174.62</ele>
        <time>2018-10-21T14:48:33Z</time>
      </trkpt>
      <trkpt lat="44.59081" lon="0.88155">
        <ele>175.1</ele>
        <time>2018-10-21T14:49:03Z</time>
      </trkpt>
      <trkpt lat="44.59119" lon="0.88117">
        <ele>179.9</ele>
        <time>2018-10-21T14:49:33Z</time>
      </trkpt>
      <trkpt lat="44.5915" lon="0.88056">
        <ele>184.23</ele>
        <time>2018-10-21T14:50:03Z</time>
      </trkpt>
      <trkpt lat="44.5918" lon="0.88014">
        <ele>190</ele>
        <time>2018-10-21T14:50:33Z</time>
      </trkpt>
      <trkpt lat="44.59216" lon="0.87967">
        <ele>192.88</ele>
        <time>2018-10-21T14:51:03Z</time>
      </trkpt>
      <trkpt lat="44.59265" lon="0.87894">
        <ele>199.13</ele>
        <time>2018-10-21T14:51:33Z</time>
      </trkpt>
      <trkpt lat="44.59307" lon="0.87854">
        <ele>202.98</ele>
        <time>2018-10-21T14:52:03Z</time>
      </trkpt>
      <trkpt lat="44.59358" lon="0.87826">
        <ele>202.01</ele>
        <time>2018-10-21T14:52:33Z</time>
      </trkpt>
      <trkpt lat="44.59452" lon="0.87697">
        <ele>193.84</ele>
        <time>2018-10-21T14:53:03Z</time>
      </trkpt>
      <trkpt lat="44.59548" lon="0.87689">
        <ele>192.88</ele>
        <time>2018-10-21T14:53:33Z</time>
      </trkpt>
      <trkpt lat="44.59602" lon="0.8763">
        <ele>194.8</ele>
        <time>2018-10-21T14:54:03Z</time>
      </trkpt>
      <trkpt lat="44.59714" lon="0.87448">
        <ele>183.75</ele>
        <time>2018-10-21T14:54:33Z</time>
      </trkpt>
      <trkpt lat="44.5985" lon="0.87236">
        <ele>173.66</ele>
        <time>2018-10-21T14:55:03Z</time>
      </trkpt>
      <trkpt lat="44.59928" lon="0.87212">
        <ele>172.69</ele>
        <time>2018-10-21T14:55:33Z</time>
      </trkpt>
      <trkpt lat="44.59983" lon="0.87285">
        <ele>169.81</ele>
        <time>2018-10-21T14:56:03Z</time>
      </trkpt>
      <trkpt lat="44.60035" lon="0.87283">
        <ele>163.56</ele>
        <time>2018-10-21T14:56:33Z</time>
      </trkpt>
      <trkpt lat="44.60037" lon="0.87257">
        <ele>161.64</ele>
        <time>2018-10-21T14:57:03Z</time>
      </trkpt>
      <trkpt lat="44.60042" lon="0.87255">
        <ele>162.12</ele>
        <time>2018-10-21T14:57:33Z</time>
      </trkpt>
      <trkpt lat="44.60037" lon="0.87196">
        <ele>162.6</ele>
        <time>2018-10-21T14:58:03Z</time>
      </trkpt>
    </trkseg>
  </trk>
</gpx>